<?xml version="1.0" encoding="UTF-8" standalone="no" ?>
<gpx xmlns="http://www.topografix.com/GPX/1/1" xmlns:xsi="http://www.w3.org/2001/XMLSchema-instance" xsi:schemaLocation="http://www.topografix.com/GPX/1/1 http://www.topografix.com/GPX/1/1/gpx.xsd" version="1.1" creator="VisuGPX - https://www.visugpx.com">
  <metadata>
    <name>Mont Puget</name>
    <desc><![CDATA[Circuit facile,quelques passages délicats!
Arrêtez vous et admirer les paysages.]]></desc>
  </metadata>
  <trk>
    <name><![CDATA[Mont Puget_2]]></name>
    <trkseg>
      <trkpt lat="43.21268" lon="5.46614">
        <ele>410.8</ele>
        <time>2013-10-09T10:31:56Z</time>
      </trkpt>
      <trkpt lat="43.21268" lon="5.46614">
        <ele>411.1</ele>
        <time>2013-10-09T10:31:57Z</time>
      </trkpt>
      <trkpt lat="43.21269" lon="5.46621">
        <ele>422.1</ele>
        <time>2013-10-09T10:36:23Z</time>
      </trkpt>
      <trkpt lat="43.21272" lon="5.46616">
        <ele>421.5</ele>
        <time>2013-10-09T10:50:53Z</time>
      </trkpt>
      <trkpt lat="43.21278" lon="5.4661">
        <ele>423</ele>
        <time>2013-10-09T10:51:26Z</time>
      </trkpt>
      <trkpt lat="43.21282" lon="5.46609">
        <ele>422.7</ele>
        <time>2013-10-09T10:51:34Z</time>
      </trkpt>
      <trkpt lat="43.21286" lon="5.46607">
        <ele>424.2</ele>
        <time>2013-10-09T10:53:17Z</time>
      </trkpt>
      <trkpt lat="43.21286" lon="5.46607">
        <ele>424.2</ele>
        <time>2013-10-09T10:53:18Z</time>
      </trkpt>
      <trkpt lat="43.21286" lon="5.46609">
        <ele>425.6</ele>
        <time>2013-10-09T10:55:54Z</time>
      </trkpt>
      <trkpt lat="43.21287" lon="5.46609">
        <ele>425.6</ele>
        <time>2013-10-09T10:55:55Z</time>
      </trkpt>
      <trkpt lat="43.21278" lon="5.46608">
        <ele>425.6</ele>
        <time>2013-10-09T10:56:10Z</time>
      </trkpt>
      <trkpt lat="43.21277" lon="5.46606">
        <ele>425.7</ele>
        <time>2013-10-09T10:56:45Z</time>
      </trkpt>
      <trkpt lat="43.21274" lon="5.46606">
        <ele>426.2</ele>
        <time>2013-10-09T10:56:46Z</time>
      </trkpt>
      <trkpt lat="43.2127" lon="5.46606">
        <ele>426.7</ele>
        <time>2013-10-09T10:56:47Z</time>
      </trkpt>
      <trkpt lat="43.21274" lon="5.46606">
        <ele>425.8</ele>
        <time>2013-10-09T10:57:06Z</time>
      </trkpt>
      <trkpt lat="43.21275" lon="5.46606">
        <ele>425.7</ele>
        <time>2013-10-09T10:57:07Z</time>
      </trkpt>
      <trkpt lat="43.21282" lon="5.46609">
        <ele>427.3</ele>
        <time>2013-10-09T10:57:25Z</time>
      </trkpt>
      <trkpt lat="43.21286" lon="5.46609">
        <ele>427.7</ele>
        <time>2013-10-09T10:59:41Z</time>
      </trkpt>
      <trkpt lat="43.21287" lon="5.46609">
        <ele>427.7</ele>
        <time>2013-10-09T10:59:42Z</time>
      </trkpt>
      <trkpt lat="43.21282" lon="5.46609">
        <ele>426.6</ele>
        <time>2013-10-09T11:01:35Z</time>
      </trkpt>
      <trkpt lat="43.21282" lon="5.4661">
        <ele>425</ele>
        <time>2013-10-09T11:03:05Z</time>
      </trkpt>
      <trkpt lat="43.21283" lon="5.4661">
        <ele>424.7</ele>
        <time>2013-10-09T11:03:06Z</time>
      </trkpt>
      <trkpt lat="43.21282" lon="5.46608">
        <ele>426.2</ele>
        <time>2013-10-09T11:04:12Z</time>
      </trkpt>
      <trkpt lat="43.21282" lon="5.46608">
        <ele>426.3</ele>
        <time>2013-10-09T11:04:13Z</time>
      </trkpt>
      <trkpt lat="43.21282" lon="5.46607">
        <ele>424</ele>
        <time>2013-10-09T11:06:28Z</time>
      </trkpt>
      <trkpt lat="43.21283" lon="5.46607">
        <ele>424</ele>
        <time>2013-10-09T11:06:29Z</time>
      </trkpt>
      <trkpt lat="43.21274" lon="5.46606">
        <ele>423.2</ele>
        <time>2013-10-09T11:07:29Z</time>
      </trkpt>
      <trkpt lat="43.21273" lon="5.46605">
        <ele>422.7</ele>
        <time>2013-10-09T11:07:30Z</time>
      </trkpt>
      <trkpt lat="43.21278" lon="5.46605">
        <ele>422.8</ele>
        <time>2013-10-09T11:10:52Z</time>
      </trkpt>
      <trkpt lat="43.21279" lon="5.46603">
        <ele>424.2</ele>
        <time>2013-10-09T11:12:08Z</time>
      </trkpt>
      <trkpt lat="43.21278" lon="5.46603">
        <ele>424.2</ele>
        <time>2013-10-09T11:12:09Z</time>
      </trkpt>
      <trkpt lat="43.21271" lon="5.46598">
        <ele>431.6</ele>
        <time>2013-10-09T11:13:12Z</time>
      </trkpt>
      <trkpt lat="43.2127" lon="5.46598">
        <ele>431.8</ele>
        <time>2013-10-09T11:13:13Z</time>
      </trkpt>
      <trkpt lat="43.21277" lon="5.46606">
        <ele>433</ele>
        <time>2013-10-09T11:13:46Z</time>
      </trkpt>
      <trkpt lat="43.21281" lon="5.46608">
        <ele>430.3</ele>
        <time>2013-10-09T11:14:01Z</time>
      </trkpt>
      <trkpt lat="43.21285" lon="5.46606">
        <ele>431</ele>
        <time>2013-10-09T11:14:23Z</time>
      </trkpt>
      <trkpt lat="43.21286" lon="5.46606">
        <ele>430.7</ele>
        <time>2013-10-09T11:14:24Z</time>
      </trkpt>
      <trkpt lat="43.21293" lon="5.46606">
        <ele>429.2</ele>
        <time>2013-10-09T11:14:35Z</time>
      </trkpt>
      <trkpt lat="43.21297" lon="5.46605">
        <ele>426</ele>
        <time>2013-10-09T11:14:44Z</time>
      </trkpt>
      <trkpt lat="43.21299" lon="5.46604">
        <ele>426.1</ele>
        <time>2013-10-09T11:14:55Z</time>
      </trkpt>
      <trkpt lat="43.21302" lon="5.46601">
        <ele>427</ele>
        <time>2013-10-09T11:15:00Z</time>
      </trkpt>
      <trkpt lat="43.21306" lon="5.466">
        <ele>427.7</ele>
        <time>2013-10-09T11:15:04Z</time>
      </trkpt>
      <trkpt lat="43.2131" lon="5.46599">
        <ele>427.7</ele>
        <time>2013-10-09T11:15:14Z</time>
      </trkpt>
      <trkpt lat="43.21307" lon="5.46597">
        <ele>428.2</ele>
        <time>2013-10-09T11:15:24Z</time>
      </trkpt>
      <trkpt lat="43.21306" lon="5.46597">
        <ele>428.8</ele>
        <time>2013-10-09T11:15:25Z</time>
      </trkpt>
      <trkpt lat="43.21308" lon="5.46586">
        <ele>423.6</ele>
        <time>2013-10-09T11:16:02Z</time>
      </trkpt>
      <trkpt lat="43.21312" lon="5.46583">
        <ele>422</ele>
        <time>2013-10-09T11:16:24Z</time>
      </trkpt>
      <trkpt lat="43.21316" lon="5.46584">
        <ele>419.1</ele>
        <time>2013-10-09T11:16:32Z</time>
      </trkpt>
      <trkpt lat="43.21317" lon="5.46584">
        <ele>418.7</ele>
        <time>2013-10-09T11:16:33Z</time>
      </trkpt>
      <trkpt lat="43.21323" lon="5.4658">
        <ele>421.6</ele>
        <time>2013-10-09T11:16:44Z</time>
      </trkpt>
      <trkpt lat="43.21328" lon="5.46579">
        <ele>422.5</ele>
        <time>2013-10-09T11:16:48Z</time>
      </trkpt>
      <trkpt lat="43.21331" lon="5.46576">
        <ele>423</ele>
        <time>2013-10-09T11:16:54Z</time>
      </trkpt>
      <trkpt lat="43.21334" lon="5.46572">
        <ele>422.5</ele>
        <time>2013-10-09T11:16:59Z</time>
      </trkpt>
      <trkpt lat="43.21336" lon="5.46568">
        <ele>422.1</ele>
        <time>2013-10-09T11:17:04Z</time>
      </trkpt>
      <trkpt lat="43.21339" lon="5.46564">
        <ele>422.3</ele>
        <time>2013-10-09T11:17:12Z</time>
      </trkpt>
      <trkpt lat="43.21342" lon="5.4656">
        <ele>424.8</ele>
        <time>2013-10-09T11:17:38Z</time>
      </trkpt>
      <trkpt lat="43.21342" lon="5.46559">
        <ele>424.6</ele>
        <time>2013-10-09T11:17:39Z</time>
      </trkpt>
      <trkpt lat="43.21346" lon="5.46551">
        <ele>422.5</ele>
        <time>2013-10-09T11:17:48Z</time>
      </trkpt>
      <trkpt lat="43.21347" lon="5.46546">
        <ele>421.7</ele>
        <time>2013-10-09T11:17:52Z</time>
      </trkpt>
      <trkpt lat="43.21348" lon="5.4654">
        <ele>420.5</ele>
        <time>2013-10-09T11:17:57Z</time>
      </trkpt>
      <trkpt lat="43.21349" lon="5.46535">
        <ele>419.5</ele>
        <time>2013-10-09T11:18:01Z</time>
      </trkpt>
      <trkpt lat="43.21351" lon="5.4653">
        <ele>418.7</ele>
        <time>2013-10-09T11:18:06Z</time>
      </trkpt>
      <trkpt lat="43.21354" lon="5.46526">
        <ele>419</ele>
        <time>2013-10-09T11:18:12Z</time>
      </trkpt>
      <trkpt lat="43.21357" lon="5.46523">
        <ele>420</ele>
        <time>2013-10-09T11:19:19Z</time>
      </trkpt>
      <trkpt lat="43.21358" lon="5.46523">
        <ele>419.7</ele>
        <time>2013-10-09T11:19:20Z</time>
      </trkpt>
      <trkpt lat="43.21364" lon="5.46528">
        <ele>418</ele>
        <time>2013-10-09T11:19:28Z</time>
      </trkpt>
      <trkpt lat="43.21368" lon="5.46531">
        <ele>414.7</ele>
        <time>2013-10-09T11:19:34Z</time>
      </trkpt>
      <trkpt lat="43.21372" lon="5.46528">
        <ele>408.8</ele>
        <time>2013-10-09T11:19:48Z</time>
      </trkpt>
      <trkpt lat="43.21372" lon="5.46522">
        <ele>409.7</ele>
        <time>2013-10-09T11:19:56Z</time>
      </trkpt>
      <trkpt lat="43.21375" lon="5.46518">
        <ele>407.7</ele>
        <time>2013-10-09T11:20:09Z</time>
      </trkpt>
      <trkpt lat="43.21378" lon="5.46515">
        <ele>405.8</ele>
        <time>2013-10-09T11:20:24Z</time>
      </trkpt>
      <trkpt lat="43.2138" lon="5.46515">
        <ele>406.2</ele>
        <time>2013-10-09T11:20:25Z</time>
      </trkpt>
      <trkpt lat="43.21386" lon="5.46517">
        <ele>403.2</ele>
        <time>2013-10-09T11:20:36Z</time>
      </trkpt>
      <trkpt lat="43.2139" lon="5.46518">
        <ele>402.6</ele>
        <time>2013-10-09T11:20:40Z</time>
      </trkpt>
      <trkpt lat="43.21394" lon="5.46517">
        <ele>401.2</ele>
        <time>2013-10-09T11:20:45Z</time>
      </trkpt>
      <trkpt lat="43.21398" lon="5.46516">
        <ele>400.8</ele>
        <time>2013-10-09T11:20:51Z</time>
      </trkpt>
      <trkpt lat="43.21402" lon="5.46514">
        <ele>401.6</ele>
        <time>2013-10-09T11:20:54Z</time>
      </trkpt>
      <trkpt lat="43.21405" lon="5.46515">
        <ele>401.6</ele>
        <time>2013-10-09T11:20:57Z</time>
      </trkpt>
      <trkpt lat="43.21409" lon="5.46515">
        <ele>401</ele>
        <time>2013-10-09T11:21:00Z</time>
      </trkpt>
      <trkpt lat="43.21413" lon="5.46515">
        <ele>400.2</ele>
        <time>2013-10-09T11:21:04Z</time>
      </trkpt>
      <trkpt lat="43.21417" lon="5.46512">
        <ele>400.2</ele>
        <time>2013-10-09T11:21:19Z</time>
      </trkpt>
      <trkpt lat="43.21421" lon="5.46511">
        <ele>399.1</ele>
        <time>2013-10-09T11:21:27Z</time>
      </trkpt>
      <trkpt lat="43.21422" lon="5.46511">
        <ele>398.7</ele>
        <time>2013-10-09T11:21:28Z</time>
      </trkpt>
      <trkpt lat="43.21427" lon="5.46504">
        <ele>393.2</ele>
        <time>2013-10-09T11:22:11Z</time>
      </trkpt>
      <trkpt lat="43.21431" lon="5.46502">
        <ele>390.2</ele>
        <time>2013-10-09T11:22:27Z</time>
      </trkpt>
      <trkpt lat="43.21429" lon="5.46498">
        <ele>388.7</ele>
        <time>2013-10-09T11:22:53Z</time>
      </trkpt>
      <trkpt lat="43.21428" lon="5.46497">
        <ele>388.8</ele>
        <time>2013-10-09T11:22:54Z</time>
      </trkpt>
      <trkpt lat="43.2143" lon="5.46488">
        <ele>383.7</ele>
        <time>2013-10-09T11:23:10Z</time>
      </trkpt>
      <trkpt lat="43.21431" lon="5.46482">
        <ele>383.6</ele>
        <time>2013-10-09T11:23:15Z</time>
      </trkpt>
      <trkpt lat="43.21435" lon="5.46479">
        <ele>384.5</ele>
        <time>2013-10-09T11:23:30Z</time>
      </trkpt>
      <trkpt lat="43.21438" lon="5.46476">
        <ele>384.5</ele>
        <time>2013-10-09T11:23:39Z</time>
      </trkpt>
      <trkpt lat="43.21442" lon="5.46476">
        <ele>385.1</ele>
        <time>2013-10-09T11:23:41Z</time>
      </trkpt>
      <trkpt lat="43.21445" lon="5.46476">
        <ele>384</ele>
        <time>2013-10-09T11:23:46Z</time>
      </trkpt>
      <trkpt lat="43.21448" lon="5.46475">
        <ele>383.3</ele>
        <time>2013-10-09T11:23:50Z</time>
      </trkpt>
      <trkpt lat="43.21452" lon="5.46474">
        <ele>384</ele>
        <time>2013-10-09T11:23:54Z</time>
      </trkpt>
      <trkpt lat="43.21453" lon="5.46474">
        <ele>384.2</ele>
        <time>2013-10-09T11:23:55Z</time>
      </trkpt>
      <trkpt lat="43.21459" lon="5.46468">
        <ele>382.2</ele>
        <time>2013-10-09T11:24:08Z</time>
      </trkpt>
      <trkpt lat="43.21462" lon="5.46465">
        <ele>383.2</ele>
        <time>2013-10-09T11:24:16Z</time>
      </trkpt>
      <trkpt lat="43.21466" lon="5.46462">
        <ele>383.1</ele>
        <time>2013-10-09T11:24:23Z</time>
      </trkpt>
      <trkpt lat="43.21469" lon="5.46457">
        <ele>378.8</ele>
        <time>2013-10-09T11:24:35Z</time>
      </trkpt>
      <trkpt lat="43.21469" lon="5.46452">
        <ele>377.6</ele>
        <time>2013-10-09T11:24:40Z</time>
      </trkpt>
      <trkpt lat="43.2147" lon="5.46446">
        <ele>376.3</ele>
        <time>2013-10-09T11:24:46Z</time>
      </trkpt>
      <trkpt lat="43.21467" lon="5.46443">
        <ele>375.5</ele>
        <time>2013-10-09T11:24:51Z</time>
      </trkpt>
      <trkpt lat="43.21464" lon="5.46438">
        <ele>375</ele>
        <time>2013-10-09T11:24:58Z</time>
      </trkpt>
      <trkpt lat="43.21464" lon="5.46438">
        <ele>374.7</ele>
        <time>2013-10-09T11:24:59Z</time>
      </trkpt>
      <trkpt lat="43.21457" lon="5.46432">
        <ele>375.7</ele>
        <time>2013-10-09T11:25:06Z</time>
      </trkpt>
      <trkpt lat="43.21454" lon="5.46432">
        <ele>378.7</ele>
        <time>2013-10-09T11:25:13Z</time>
      </trkpt>
      <trkpt lat="43.2145" lon="5.46429">
        <ele>379.2</ele>
        <time>2013-10-09T11:25:18Z</time>
      </trkpt>
      <trkpt lat="43.21448" lon="5.46425">
        <ele>376.3</ele>
        <time>2013-10-09T11:25:22Z</time>
      </trkpt>
      <trkpt lat="43.21447" lon="5.46419">
        <ele>373.5</ele>
        <time>2013-10-09T11:25:27Z</time>
      </trkpt>
      <trkpt lat="43.21448" lon="5.46413">
        <ele>369.7</ele>
        <time>2013-10-09T11:25:34Z</time>
      </trkpt>
      <trkpt lat="43.21449" lon="5.46408">
        <ele>367.5</ele>
        <time>2013-10-09T11:25:39Z</time>
      </trkpt>
      <trkpt lat="43.21448" lon="5.46405">
        <ele>368.1</ele>
        <time>2013-10-09T11:25:40Z</time>
      </trkpt>
      <trkpt lat="43.21446" lon="5.464">
        <ele>368.8</ele>
        <time>2013-10-09T11:25:42Z</time>
      </trkpt>
      <trkpt lat="43.21445" lon="5.46395">
        <ele>369.5</ele>
        <time>2013-10-09T11:25:45Z</time>
      </trkpt>
      <trkpt lat="43.21444" lon="5.4639">
        <ele>369.7</ele>
        <time>2013-10-09T11:25:49Z</time>
      </trkpt>
      <trkpt lat="43.21444" lon="5.46384">
        <ele>370</ele>
        <time>2013-10-09T11:25:58Z</time>
      </trkpt>
      <trkpt lat="43.21445" lon="5.46378">
        <ele>369.3</ele>
        <time>2013-10-09T11:26:06Z</time>
      </trkpt>
      <trkpt lat="43.21447" lon="5.46378">
        <ele>369.7</ele>
        <time>2013-10-09T11:26:07Z</time>
      </trkpt>
      <trkpt lat="43.21448" lon="5.46368">
        <ele>368</ele>
        <time>2013-10-09T11:26:15Z</time>
      </trkpt>
      <trkpt lat="43.21449" lon="5.46363">
        <ele>367.2</ele>
        <time>2013-10-09T11:26:19Z</time>
      </trkpt>
      <trkpt lat="43.21451" lon="5.46358">
        <ele>367.6</ele>
        <time>2013-10-09T11:26:23Z</time>
      </trkpt>
      <trkpt lat="43.21452" lon="5.46353">
        <ele>366.7</ele>
        <time>2013-10-09T11:26:27Z</time>
      </trkpt>
      <trkpt lat="43.21454" lon="5.46349">
        <ele>366.2</ele>
        <time>2013-10-09T11:26:31Z</time>
      </trkpt>
      <trkpt lat="43.21456" lon="5.46344">
        <ele>365.6</ele>
        <time>2013-10-09T11:26:35Z</time>
      </trkpt>
      <trkpt lat="43.21459" lon="5.46342">
        <ele>366.7</ele>
        <time>2013-10-09T11:26:37Z</time>
      </trkpt>
      <trkpt lat="43.21462" lon="5.46339">
        <ele>367.5</ele>
        <time>2013-10-09T11:26:40Z</time>
      </trkpt>
      <trkpt lat="43.21465" lon="5.46338">
        <ele>368</ele>
        <time>2013-10-09T11:26:41Z</time>
      </trkpt>
      <trkpt lat="43.21469" lon="5.46336">
        <ele>369</ele>
        <time>2013-10-09T11:26:44Z</time>
      </trkpt>
      <trkpt lat="43.21469" lon="5.4633">
        <ele>369.5</ele>
        <time>2013-10-09T11:26:51Z</time>
      </trkpt>
      <trkpt lat="43.21465" lon="5.46327">
        <ele>368.2</ele>
        <time>2013-10-09T11:26:57Z</time>
      </trkpt>
      <trkpt lat="43.21461" lon="5.46325">
        <ele>366.8</ele>
        <time>2013-10-09T11:27:02Z</time>
      </trkpt>
      <trkpt lat="43.21458" lon="5.46322">
        <ele>366.5</ele>
        <time>2013-10-09T11:27:06Z</time>
      </trkpt>
      <trkpt lat="43.21455" lon="5.46318">
        <ele>366.1</ele>
        <time>2013-10-09T11:27:10Z</time>
      </trkpt>
      <trkpt lat="43.21454" lon="5.46316">
        <ele>366.1</ele>
        <time>2013-10-09T11:27:11Z</time>
      </trkpt>
      <trkpt lat="43.21449" lon="5.46309">
        <ele>364.3</ele>
        <time>2013-10-09T11:27:19Z</time>
      </trkpt>
      <trkpt lat="43.21448" lon="5.46304">
        <ele>361.1</ele>
        <time>2013-10-09T11:27:28Z</time>
      </trkpt>
      <trkpt lat="43.21447" lon="5.46298">
        <ele>359.5</ele>
        <time>2013-10-09T11:27:35Z</time>
      </trkpt>
      <trkpt lat="43.21445" lon="5.46293">
        <ele>360.3</ele>
        <time>2013-10-09T11:27:48Z</time>
      </trkpt>
      <trkpt lat="43.21444" lon="5.46288">
        <ele>359.5</ele>
        <time>2013-10-09T11:28:00Z</time>
      </trkpt>
      <trkpt lat="43.21443" lon="5.46282">
        <ele>360.2</ele>
        <time>2013-10-09T11:28:04Z</time>
      </trkpt>
      <trkpt lat="43.21442" lon="5.46276">
        <ele>358.7</ele>
        <time>2013-10-09T11:28:10Z</time>
      </trkpt>
      <trkpt lat="43.21442" lon="5.46271">
        <ele>357.8</ele>
        <time>2013-10-09T11:28:15Z</time>
      </trkpt>
      <trkpt lat="43.21443" lon="5.4627">
        <ele>357.7</ele>
        <time>2013-10-09T11:28:16Z</time>
      </trkpt>
      <trkpt lat="43.21443" lon="5.4626">
        <ele>356.5</ele>
        <time>2013-10-09T11:28:24Z</time>
      </trkpt>
      <trkpt lat="43.21443" lon="5.46256">
        <ele>355.7</ele>
        <time>2013-10-09T11:28:28Z</time>
      </trkpt>
      <trkpt lat="43.21444" lon="5.4625">
        <ele>355.6</ele>
        <time>2013-10-09T11:28:32Z</time>
      </trkpt>
      <trkpt lat="43.21444" lon="5.46244">
        <ele>355.6</ele>
        <time>2013-10-09T11:28:36Z</time>
      </trkpt>
      <trkpt lat="43.21442" lon="5.46241">
        <ele>356.7</ele>
        <time>2013-10-09T11:28:37Z</time>
      </trkpt>
      <trkpt lat="43.21441" lon="5.46237">
        <ele>357.7</ele>
        <time>2013-10-09T11:28:39Z</time>
      </trkpt>
      <trkpt lat="43.2144" lon="5.46232">
        <ele>358.1</ele>
        <time>2013-10-09T11:28:42Z</time>
      </trkpt>
      <trkpt lat="43.21439" lon="5.46227">
        <ele>358.1</ele>
        <time>2013-10-09T11:28:46Z</time>
      </trkpt>
      <trkpt lat="43.2144" lon="5.46221">
        <ele>358</ele>
        <time>2013-10-09T11:28:52Z</time>
      </trkpt>
      <trkpt lat="43.21444" lon="5.4622">
        <ele>350.3</ele>
        <time>2013-10-09T11:29:18Z</time>
      </trkpt>
      <trkpt lat="43.21444" lon="5.4622">
        <ele>350.2</ele>
        <time>2013-10-09T11:29:19Z</time>
      </trkpt>
      <trkpt lat="43.21439" lon="5.46211">
        <ele>354.1</ele>
        <time>2013-10-09T11:29:38Z</time>
      </trkpt>
      <trkpt lat="43.2144" lon="5.46206">
        <ele>353.6</ele>
        <time>2013-10-09T11:29:43Z</time>
      </trkpt>
      <trkpt lat="43.21443" lon="5.46201">
        <ele>353.6</ele>
        <time>2013-10-09T11:29:47Z</time>
      </trkpt>
      <trkpt lat="43.21444" lon="5.46195">
        <ele>354.1</ele>
        <time>2013-10-09T11:29:52Z</time>
      </trkpt>
      <trkpt lat="43.21447" lon="5.46191">
        <ele>354.6</ele>
        <time>2013-10-09T11:29:58Z</time>
      </trkpt>
      <trkpt lat="43.2145" lon="5.46192">
        <ele>354.5</ele>
        <time>2013-10-09T11:30:01Z</time>
      </trkpt>
      <trkpt lat="43.21453" lon="5.46192">
        <ele>354.7</ele>
        <time>2013-10-09T11:30:04Z</time>
      </trkpt>
      <trkpt lat="43.21456" lon="5.46192">
        <ele>355.1</ele>
        <time>2013-10-09T11:30:06Z</time>
      </trkpt>
      <trkpt lat="43.2146" lon="5.46192">
        <ele>355</ele>
        <time>2013-10-09T11:30:09Z</time>
      </trkpt>
      <trkpt lat="43.21463" lon="5.46189">
        <ele>356.7</ele>
        <time>2013-10-09T11:30:14Z</time>
      </trkpt>
      <trkpt lat="43.21466" lon="5.46185">
        <ele>357.2</ele>
        <time>2013-10-09T11:30:21Z</time>
      </trkpt>
      <trkpt lat="43.21467" lon="5.46184">
        <ele>357.2</ele>
        <time>2013-10-09T11:30:22Z</time>
      </trkpt>
      <trkpt lat="43.21473" lon="5.46181">
        <ele>359.2</ele>
        <time>2013-10-09T11:30:30Z</time>
      </trkpt>
      <trkpt lat="43.21476" lon="5.46181">
        <ele>360.2</ele>
        <time>2013-10-09T11:30:33Z</time>
      </trkpt>
      <trkpt lat="43.2148" lon="5.46178">
        <ele>360.5</ele>
        <time>2013-10-09T11:30:39Z</time>
      </trkpt>
      <trkpt lat="43.21483" lon="5.46175">
        <ele>358.8</ele>
        <time>2013-10-09T11:30:44Z</time>
      </trkpt>
      <trkpt lat="43.21487" lon="5.46174">
        <ele>360.6</ele>
        <time>2013-10-09T11:30:47Z</time>
      </trkpt>
      <trkpt lat="43.21491" lon="5.46173">
        <ele>362</ele>
        <time>2013-10-09T11:30:51Z</time>
      </trkpt>
      <trkpt lat="43.21494" lon="5.4617">
        <ele>361.2</ele>
        <time>2013-10-09T11:30:56Z</time>
      </trkpt>
      <trkpt lat="43.21499" lon="5.46168">
        <ele>360.2</ele>
        <time>2013-10-09T11:31:01Z</time>
      </trkpt>
      <trkpt lat="43.21503" lon="5.46169">
        <ele>359.8</ele>
        <time>2013-10-09T11:31:06Z</time>
      </trkpt>
      <trkpt lat="43.21506" lon="5.46165">
        <ele>359.7</ele>
        <time>2013-10-09T11:31:21Z</time>
      </trkpt>
      <trkpt lat="43.2151" lon="5.46161">
        <ele>364</ele>
        <time>2013-10-09T11:31:32Z</time>
      </trkpt>
      <trkpt lat="43.21512" lon="5.46161">
        <ele>363.5</ele>
        <time>2013-10-09T11:31:33Z</time>
      </trkpt>
      <trkpt lat="43.21517" lon="5.46157">
        <ele>361.5</ele>
        <time>2013-10-09T11:31:39Z</time>
      </trkpt>
      <trkpt lat="43.21515" lon="5.46152">
        <ele>362.1</ele>
        <time>2013-10-09T11:31:41Z</time>
      </trkpt>
      <trkpt lat="43.21515" lon="5.46146">
        <ele>361.2</ele>
        <time>2013-10-09T11:31:45Z</time>
      </trkpt>
      <trkpt lat="43.21515" lon="5.46141">
        <ele>360.6</ele>
        <time>2013-10-09T11:31:49Z</time>
      </trkpt>
      <trkpt lat="43.21516" lon="5.46137">
        <ele>360</ele>
        <time>2013-10-09T11:31:52Z</time>
      </trkpt>
      <trkpt lat="43.21519" lon="5.46135">
        <ele>360.2</ele>
        <time>2013-10-09T11:31:54Z</time>
      </trkpt>
      <trkpt lat="43.21522" lon="5.46131">
        <ele>359.7</ele>
        <time>2013-10-09T11:31:57Z</time>
      </trkpt>
      <trkpt lat="43.21525" lon="5.46128">
        <ele>358.8</ele>
        <time>2013-10-09T11:32:00Z</time>
      </trkpt>
      <trkpt lat="43.21527" lon="5.46124">
        <ele>358.3</ele>
        <time>2013-10-09T11:32:03Z</time>
      </trkpt>
      <trkpt lat="43.21529" lon="5.46119">
        <ele>358.2</ele>
        <time>2013-10-09T11:32:07Z</time>
      </trkpt>
      <trkpt lat="43.21528" lon="5.46114">
        <ele>359.1</ele>
        <time>2013-10-09T11:32:10Z</time>
      </trkpt>
      <trkpt lat="43.21529" lon="5.46108">
        <ele>359.3</ele>
        <time>2013-10-09T11:32:16Z</time>
      </trkpt>
      <trkpt lat="43.2153" lon="5.46103">
        <ele>357.6</ele>
        <time>2013-10-09T11:32:24Z</time>
      </trkpt>
      <trkpt lat="43.21528" lon="5.46098">
        <ele>359</ele>
        <time>2013-10-09T11:32:27Z</time>
      </trkpt>
      <trkpt lat="43.21527" lon="5.46092">
        <ele>360.2</ele>
        <time>2013-10-09T11:32:31Z</time>
      </trkpt>
      <trkpt lat="43.21526" lon="5.46086">
        <ele>360.6</ele>
        <time>2013-10-09T11:32:36Z</time>
      </trkpt>
      <trkpt lat="43.21526" lon="5.46085">
        <ele>360.5</ele>
        <time>2013-10-09T11:32:37Z</time>
      </trkpt>
      <trkpt lat="43.21525" lon="5.46075">
        <ele>360</ele>
        <time>2013-10-09T11:32:45Z</time>
      </trkpt>
      <trkpt lat="43.21526" lon="5.4607">
        <ele>359.3</ele>
        <time>2013-10-09T11:32:50Z</time>
      </trkpt>
      <trkpt lat="43.21529" lon="5.46067">
        <ele>359.7</ele>
        <time>2013-10-09T11:32:53Z</time>
      </trkpt>
      <trkpt lat="43.21531" lon="5.46062">
        <ele>359.3</ele>
        <time>2013-10-09T11:32:59Z</time>
      </trkpt>
      <trkpt lat="43.21532" lon="5.46056">
        <ele>360.3</ele>
        <time>2013-10-09T11:33:05Z</time>
      </trkpt>
      <trkpt lat="43.21533" lon="5.46051">
        <ele>360.7</ele>
        <time>2013-10-09T11:33:19Z</time>
      </trkpt>
      <trkpt lat="43.21537" lon="5.46047">
        <ele>366.3</ele>
        <time>2013-10-09T11:34:35Z</time>
      </trkpt>
      <trkpt lat="43.21538" lon="5.46047">
        <ele>366.5</ele>
        <time>2013-10-09T11:34:36Z</time>
      </trkpt>
      <trkpt lat="43.21545" lon="5.46051">
        <ele>365.2</ele>
        <time>2013-10-09T11:34:46Z</time>
      </trkpt>
      <trkpt lat="43.21549" lon="5.46053">
        <ele>365.6</ele>
        <time>2013-10-09T11:34:53Z</time>
      </trkpt>
      <trkpt lat="43.21553" lon="5.46053">
        <ele>366.3</ele>
        <time>2013-10-09T11:34:59Z</time>
      </trkpt>
      <trkpt lat="43.21557" lon="5.46054">
        <ele>366.6</ele>
        <time>2013-10-09T11:35:03Z</time>
      </trkpt>
      <trkpt lat="43.2156" lon="5.46058">
        <ele>364.8</ele>
        <time>2013-10-09T11:35:08Z</time>
      </trkpt>
      <trkpt lat="43.21564" lon="5.46061">
        <ele>359.2</ele>
        <time>2013-10-09T11:35:18Z</time>
      </trkpt>
      <trkpt lat="43.21568" lon="5.46062">
        <ele>359.5</ele>
        <time>2013-10-09T11:35:37Z</time>
      </trkpt>
      <trkpt lat="43.2157" lon="5.46062">
        <ele>360</ele>
        <time>2013-10-09T11:35:38Z</time>
      </trkpt>
      <trkpt lat="43.21575" lon="5.46064">
        <ele>359.6</ele>
        <time>2013-10-09T11:35:55Z</time>
      </trkpt>
      <trkpt lat="43.2158" lon="5.46065">
        <ele>362.5</ele>
        <time>2013-10-09T11:36:16Z</time>
      </trkpt>
      <trkpt lat="43.21584" lon="5.46066">
        <ele>359.7</ele>
        <time>2013-10-09T11:36:20Z</time>
      </trkpt>
      <trkpt lat="43.21587" lon="5.46067">
        <ele>358.2</ele>
        <time>2013-10-09T11:36:23Z</time>
      </trkpt>
      <trkpt lat="43.21592" lon="5.46068">
        <ele>355.8</ele>
        <time>2013-10-09T11:36:34Z</time>
      </trkpt>
      <trkpt lat="43.21595" lon="5.46066">
        <ele>355.7</ele>
        <time>2013-10-09T11:36:39Z</time>
      </trkpt>
      <trkpt lat="43.21597" lon="5.46066">
        <ele>356.3</ele>
        <time>2013-10-09T11:36:40Z</time>
      </trkpt>
      <trkpt lat="43.21602" lon="5.46063">
        <ele>357.8</ele>
        <time>2013-10-09T11:36:44Z</time>
      </trkpt>
      <trkpt lat="43.21605" lon="5.46058">
        <ele>359.2</ele>
        <time>2013-10-09T11:36:48Z</time>
      </trkpt>
      <trkpt lat="43.21608" lon="5.46053">
        <ele>360.7</ele>
        <time>2013-10-09T11:36:53Z</time>
      </trkpt>
      <trkpt lat="43.21612" lon="5.46051">
        <ele>361.6</ele>
        <time>2013-10-09T11:36:57Z</time>
      </trkpt>
      <trkpt lat="43.21615" lon="5.4605">
        <ele>361.7</ele>
        <time>2013-10-09T11:37:01Z</time>
      </trkpt>
      <trkpt lat="43.21619" lon="5.46051">
        <ele>363</ele>
        <time>2013-10-09T11:37:03Z</time>
      </trkpt>
      <trkpt lat="43.21623" lon="5.4605">
        <ele>364.6</ele>
        <time>2013-10-09T11:37:06Z</time>
      </trkpt>
      <trkpt lat="43.21627" lon="5.4605">
        <ele>365.7</ele>
        <time>2013-10-09T11:37:09Z</time>
      </trkpt>
      <trkpt lat="43.21631" lon="5.46053">
        <ele>364.6</ele>
        <time>2013-10-09T11:37:13Z</time>
      </trkpt>
      <trkpt lat="43.21634" lon="5.46057">
        <ele>361.2</ele>
        <time>2013-10-09T11:37:17Z</time>
      </trkpt>
      <trkpt lat="43.21637" lon="5.46059">
        <ele>360.2</ele>
        <time>2013-10-09T11:37:21Z</time>
      </trkpt>
      <trkpt lat="43.21641" lon="5.4606">
        <ele>360.2</ele>
        <time>2013-10-09T11:37:25Z</time>
      </trkpt>
      <trkpt lat="43.21645" lon="5.46061">
        <ele>359.7</ele>
        <time>2013-10-09T11:37:31Z</time>
      </trkpt>
      <trkpt lat="43.21649" lon="5.46062">
        <ele>360</ele>
        <time>2013-10-09T11:37:35Z</time>
      </trkpt>
      <trkpt lat="43.21653" lon="5.46064">
        <ele>360</ele>
        <time>2013-10-09T11:37:40Z</time>
      </trkpt>
      <trkpt lat="43.21654" lon="5.46065">
        <ele>359.8</ele>
        <time>2013-10-09T11:37:41Z</time>
      </trkpt>
      <trkpt lat="43.2166" lon="5.46067">
        <ele>360.3</ele>
        <time>2013-10-09T11:37:47Z</time>
      </trkpt>
      <trkpt lat="43.21663" lon="5.46063">
        <ele>360.7</ele>
        <time>2013-10-09T11:37:53Z</time>
      </trkpt>
      <trkpt lat="43.21666" lon="5.46059">
        <ele>359.6</ele>
        <time>2013-10-09T11:37:58Z</time>
      </trkpt>
      <trkpt lat="43.21668" lon="5.46055">
        <ele>358.7</ele>
        <time>2013-10-09T11:38:04Z</time>
      </trkpt>
      <trkpt lat="43.21672" lon="5.46052">
        <ele>359.7</ele>
        <time>2013-10-09T11:38:07Z</time>
      </trkpt>
      <trkpt lat="43.21673" lon="5.46051">
        <ele>360.2</ele>
        <time>2013-10-09T11:38:08Z</time>
      </trkpt>
      <trkpt lat="43.21678" lon="5.46051">
        <ele>361.2</ele>
        <time>2013-10-09T11:38:09Z</time>
      </trkpt>
      <trkpt lat="43.21682" lon="5.46051">
        <ele>362.2</ele>
        <time>2013-10-09T11:38:11Z</time>
      </trkpt>
      <trkpt lat="43.21686" lon="5.4605">
        <ele>363.1</ele>
        <time>2013-10-09T11:38:13Z</time>
      </trkpt>
      <trkpt lat="43.2169" lon="5.4605">
        <ele>363.7</ele>
        <time>2013-10-09T11:38:17Z</time>
      </trkpt>
      <trkpt lat="43.21695" lon="5.46049">
        <ele>366.7</ele>
        <time>2013-10-09T11:38:22Z</time>
      </trkpt>
      <trkpt lat="43.21698" lon="5.46045">
        <ele>370.3</ele>
        <time>2013-10-09T11:38:27Z</time>
      </trkpt>
      <trkpt lat="43.21701" lon="5.46042">
        <ele>369.3</ele>
        <time>2013-10-09T11:38:32Z</time>
      </trkpt>
      <trkpt lat="43.21703" lon="5.46037">
        <ele>367.1</ele>
        <time>2013-10-09T11:38:36Z</time>
      </trkpt>
      <trkpt lat="43.21705" lon="5.46032">
        <ele>365.7</ele>
        <time>2013-10-09T11:38:40Z</time>
      </trkpt>
      <trkpt lat="43.21705" lon="5.46027">
        <ele>362.7</ele>
        <time>2013-10-09T11:38:47Z</time>
      </trkpt>
      <trkpt lat="43.21704" lon="5.46026">
        <ele>362.7</ele>
        <time>2013-10-09T11:38:48Z</time>
      </trkpt>
      <trkpt lat="43.21698" lon="5.4602">
        <ele>362.3</ele>
        <time>2013-10-09T11:38:55Z</time>
      </trkpt>
      <trkpt lat="43.21696" lon="5.46015">
        <ele>362.2</ele>
        <time>2013-10-09T11:38:58Z</time>
      </trkpt>
      <trkpt lat="43.21694" lon="5.4601">
        <ele>361.3</ele>
        <time>2013-10-09T11:39:07Z</time>
      </trkpt>
      <trkpt lat="43.21691" lon="5.46006">
        <ele>361.6</ele>
        <time>2013-10-09T11:39:12Z</time>
      </trkpt>
      <trkpt lat="43.21689" lon="5.46002">
        <ele>362.5</ele>
        <time>2013-10-09T11:39:17Z</time>
      </trkpt>
      <trkpt lat="43.21687" lon="5.45997">
        <ele>365.7</ele>
        <time>2013-10-09T11:39:22Z</time>
      </trkpt>
      <trkpt lat="43.21686" lon="5.45991">
        <ele>364.1</ele>
        <time>2013-10-09T11:39:28Z</time>
      </trkpt>
      <trkpt lat="43.21686" lon="5.45985">
        <ele>363.7</ele>
        <time>2013-10-09T11:39:34Z</time>
      </trkpt>
      <trkpt lat="43.21685" lon="5.4598">
        <ele>364.1</ele>
        <time>2013-10-09T11:39:39Z</time>
      </trkpt>
      <trkpt lat="43.21683" lon="5.45974">
        <ele>365.2</ele>
        <time>2013-10-09T11:39:42Z</time>
      </trkpt>
      <trkpt lat="43.21682" lon="5.45969">
        <ele>365.6</ele>
        <time>2013-10-09T11:39:46Z</time>
      </trkpt>
      <trkpt lat="43.21682" lon="5.45963">
        <ele>365.2</ele>
        <time>2013-10-09T11:39:52Z</time>
      </trkpt>
      <trkpt lat="43.21682" lon="5.45962">
        <ele>365.2</ele>
        <time>2013-10-09T11:39:53Z</time>
      </trkpt>
      <trkpt lat="43.21685" lon="5.45952">
        <ele>365.7</ele>
        <time>2013-10-09T11:40:04Z</time>
      </trkpt>
      <trkpt lat="43.21686" lon="5.45947">
        <ele>366.2</ele>
        <time>2013-10-09T11:40:10Z</time>
      </trkpt>
      <trkpt lat="43.21686" lon="5.45942">
        <ele>367.1</ele>
        <time>2013-10-09T11:40:15Z</time>
      </trkpt>
      <trkpt lat="43.21684" lon="5.45937">
        <ele>367.7</ele>
        <time>2013-10-09T11:40:18Z</time>
      </trkpt>
      <trkpt lat="43.21685" lon="5.45931">
        <ele>368.3</ele>
        <time>2013-10-09T11:40:22Z</time>
      </trkpt>
      <trkpt lat="43.21685" lon="5.45926">
        <ele>368.2</ele>
        <time>2013-10-09T11:40:27Z</time>
      </trkpt>
      <trkpt lat="43.21686" lon="5.4592">
        <ele>368.1</ele>
        <time>2013-10-09T11:40:32Z</time>
      </trkpt>
      <trkpt lat="43.21686" lon="5.45914">
        <ele>367.8</ele>
        <time>2013-10-09T11:40:37Z</time>
      </trkpt>
      <trkpt lat="43.21689" lon="5.4591">
        <ele>367.3</ele>
        <time>2013-10-09T11:40:42Z</time>
      </trkpt>
      <trkpt lat="43.2169" lon="5.45905">
        <ele>367.1</ele>
        <time>2013-10-09T11:40:46Z</time>
      </trkpt>
      <trkpt lat="43.2169" lon="5.45899">
        <ele>367.5</ele>
        <time>2013-10-09T11:40:51Z</time>
      </trkpt>
      <trkpt lat="43.21693" lon="5.45895">
        <ele>368.2</ele>
        <time>2013-10-09T11:40:55Z</time>
      </trkpt>
      <trkpt lat="43.21693" lon="5.45894">
        <ele>368.7</ele>
        <time>2013-10-09T11:40:56Z</time>
      </trkpt>
      <trkpt lat="43.217" lon="5.45892">
        <ele>371.5</ele>
        <time>2013-10-09T11:41:03Z</time>
      </trkpt>
      <trkpt lat="43.21704" lon="5.45891">
        <ele>374.1</ele>
        <time>2013-10-09T11:41:08Z</time>
      </trkpt>
      <trkpt lat="43.21708" lon="5.45889">
        <ele>375.2</ele>
        <time>2013-10-09T11:41:12Z</time>
      </trkpt>
      <trkpt lat="43.21712" lon="5.45888">
        <ele>376.7</ele>
        <time>2013-10-09T11:41:17Z</time>
      </trkpt>
      <trkpt lat="43.21717" lon="5.45885">
        <ele>379</ele>
        <time>2013-10-09T11:41:23Z</time>
      </trkpt>
      <trkpt lat="43.2172" lon="5.45886">
        <ele>379.7</ele>
        <time>2013-10-09T11:41:28Z</time>
      </trkpt>
      <trkpt lat="43.21724" lon="5.45887">
        <ele>376.7</ele>
        <time>2013-10-09T11:41:33Z</time>
      </trkpt>
      <trkpt lat="43.21728" lon="5.45888">
        <ele>377.1</ele>
        <time>2013-10-09T11:41:36Z</time>
      </trkpt>
      <trkpt lat="43.21733" lon="5.45888">
        <ele>377.7</ele>
        <time>2013-10-09T11:41:41Z</time>
      </trkpt>
      <trkpt lat="43.21736" lon="5.45886">
        <ele>378.7</ele>
        <time>2013-10-09T11:41:47Z</time>
      </trkpt>
      <trkpt lat="43.2174" lon="5.45882">
        <ele>376.6</ele>
        <time>2013-10-09T11:41:53Z</time>
      </trkpt>
      <trkpt lat="43.21743" lon="5.45879">
        <ele>376</ele>
        <time>2013-10-09T11:41:59Z</time>
      </trkpt>
      <trkpt lat="43.21744" lon="5.45878">
        <ele>376.2</ele>
        <time>2013-10-09T11:42:00Z</time>
      </trkpt>
      <trkpt lat="43.21751" lon="5.45875">
        <ele>376.5</ele>
        <time>2013-10-09T11:42:08Z</time>
      </trkpt>
      <trkpt lat="43.21754" lon="5.45875">
        <ele>376.2</ele>
        <time>2013-10-09T11:42:12Z</time>
      </trkpt>
      <trkpt lat="43.21758" lon="5.45876">
        <ele>375.8</ele>
        <time>2013-10-09T11:42:15Z</time>
      </trkpt>
      <trkpt lat="43.21761" lon="5.45876">
        <ele>376.8</ele>
        <time>2013-10-09T11:42:17Z</time>
      </trkpt>
      <trkpt lat="43.21765" lon="5.45876">
        <ele>378.7</ele>
        <time>2013-10-09T11:42:21Z</time>
      </trkpt>
      <trkpt lat="43.21769" lon="5.45875">
        <ele>379.8</ele>
        <time>2013-10-09T11:42:26Z</time>
      </trkpt>
      <trkpt lat="43.21773" lon="5.45874">
        <ele>381.3</ele>
        <time>2013-10-09T11:42:32Z</time>
      </trkpt>
      <trkpt lat="43.21778" lon="5.45872">
        <ele>382.3</ele>
        <time>2013-10-09T11:42:40Z</time>
      </trkpt>
      <trkpt lat="43.21781" lon="5.4587">
        <ele>385.7</ele>
        <time>2013-10-09T11:42:49Z</time>
      </trkpt>
      <trkpt lat="43.21785" lon="5.45869">
        <ele>387</ele>
        <time>2013-10-09T11:42:53Z</time>
      </trkpt>
      <trkpt lat="43.21789" lon="5.4587">
        <ele>382.5</ele>
        <time>2013-10-09T11:43:06Z</time>
      </trkpt>
      <trkpt lat="43.21789" lon="5.4587">
        <ele>382.2</ele>
        <time>2013-10-09T11:43:07Z</time>
      </trkpt>
      <trkpt lat="43.21793" lon="5.4586">
        <ele>384.7</ele>
        <time>2013-10-09T11:43:50Z</time>
      </trkpt>
      <trkpt lat="43.21793" lon="5.45855">
        <ele>385.5</ele>
        <time>2013-10-09T11:44:02Z</time>
      </trkpt>
      <trkpt lat="43.21793" lon="5.45849">
        <ele>381.7</ele>
        <time>2013-10-09T11:44:10Z</time>
      </trkpt>
      <trkpt lat="43.21794" lon="5.45848">
        <ele>381.8</ele>
        <time>2013-10-09T11:44:11Z</time>
      </trkpt>
      <trkpt lat="43.21793" lon="5.45839">
        <ele>381.7</ele>
        <time>2013-10-09T11:44:22Z</time>
      </trkpt>
      <trkpt lat="43.21791" lon="5.45834">
        <ele>382.7</ele>
        <time>2013-10-09T11:44:26Z</time>
      </trkpt>
      <trkpt lat="43.21789" lon="5.45829">
        <ele>383.6</ele>
        <time>2013-10-09T11:44:30Z</time>
      </trkpt>
      <trkpt lat="43.21788" lon="5.45824">
        <ele>384.8</ele>
        <time>2013-10-09T11:44:36Z</time>
      </trkpt>
      <trkpt lat="43.21789" lon="5.45818">
        <ele>385.7</ele>
        <time>2013-10-09T11:44:45Z</time>
      </trkpt>
      <trkpt lat="43.21788" lon="5.45812">
        <ele>385.1</ele>
        <time>2013-10-09T11:44:53Z</time>
      </trkpt>
      <trkpt lat="43.21789" lon="5.45806">
        <ele>387.1</ele>
        <time>2013-10-09T11:45:12Z</time>
      </trkpt>
      <trkpt lat="43.21788" lon="5.45806">
        <ele>387.5</ele>
        <time>2013-10-09T11:45:13Z</time>
      </trkpt>
      <trkpt lat="43.21795" lon="5.45809">
        <ele>387.7</ele>
        <time>2013-10-09T11:46:29Z</time>
      </trkpt>
      <trkpt lat="43.21796" lon="5.45809">
        <ele>388.2</ele>
        <time>2013-10-09T11:46:30Z</time>
      </trkpt>
      <trkpt lat="43.21804" lon="5.45809">
        <ele>389.2</ele>
        <time>2013-10-09T11:46:44Z</time>
      </trkpt>
      <trkpt lat="43.21808" lon="5.45809">
        <ele>390.3</ele>
        <time>2013-10-09T11:46:55Z</time>
      </trkpt>
      <trkpt lat="43.21812" lon="5.45808">
        <ele>392.2</ele>
        <time>2013-10-09T11:47:24Z</time>
      </trkpt>
      <trkpt lat="43.21816" lon="5.45809">
        <ele>391.2</ele>
        <time>2013-10-09T11:47:33Z</time>
      </trkpt>
      <trkpt lat="43.21817" lon="5.45809">
        <ele>391</ele>
        <time>2013-10-09T11:47:34Z</time>
      </trkpt>
      <trkpt lat="43.21823" lon="5.45805">
        <ele>394.2</ele>
        <time>2013-10-09T11:49:01Z</time>
      </trkpt>
      <trkpt lat="43.21823" lon="5.45805">
        <ele>394.2</ele>
        <time>2013-10-09T11:49:02Z</time>
      </trkpt>
      <trkpt lat="43.21823" lon="5.45794">
        <ele>396.7</ele>
        <time>2013-10-09T11:49:49Z</time>
      </trkpt>
      <trkpt lat="43.21819" lon="5.45791">
        <ele>398.6</ele>
        <time>2013-10-09T11:50:04Z</time>
      </trkpt>
      <trkpt lat="43.21819" lon="5.45791">
        <ele>398.7</ele>
        <time>2013-10-09T11:50:05Z</time>
      </trkpt>
      <trkpt lat="43.21814" lon="5.45784">
        <ele>386.2</ele>
        <time>2013-10-09T11:50:58Z</time>
      </trkpt>
      <trkpt lat="43.21811" lon="5.45782">
        <ele>388.2</ele>
        <time>2013-10-09T11:51:07Z</time>
      </trkpt>
      <trkpt lat="43.2181" lon="5.45782">
        <ele>387.7</ele>
        <time>2013-10-09T11:51:08Z</time>
      </trkpt>
      <trkpt lat="43.21806" lon="5.45791">
        <ele>384.5</ele>
        <time>2013-10-09T11:51:29Z</time>
      </trkpt>
      <trkpt lat="43.21802" lon="5.45788">
        <ele>377.7</ele>
        <time>2013-10-09T11:51:38Z</time>
      </trkpt>
      <trkpt lat="43.21798" lon="5.45786">
        <ele>379</ele>
        <time>2013-10-09T11:52:07Z</time>
      </trkpt>
      <trkpt lat="43.21796" lon="5.45781">
        <ele>379.7</ele>
        <time>2013-10-09T11:52:13Z</time>
      </trkpt>
      <trkpt lat="43.21795" lon="5.45781">
        <ele>379.2</ele>
        <time>2013-10-09T11:52:14Z</time>
      </trkpt>
      <trkpt lat="43.21798" lon="5.45773">
        <ele>393.6</ele>
        <time>2013-10-09T11:52:28Z</time>
      </trkpt>
      <trkpt lat="43.21802" lon="5.45776">
        <ele>402.5</ele>
        <time>2013-10-09T11:52:34Z</time>
      </trkpt>
      <trkpt lat="43.21798" lon="5.45776">
        <ele>391.2</ele>
        <time>2013-10-09T11:52:53Z</time>
      </trkpt>
      <trkpt lat="43.21794" lon="5.45774">
        <ele>388.7</ele>
        <time>2013-10-09T11:52:56Z</time>
      </trkpt>
      <trkpt lat="43.2179" lon="5.45772">
        <ele>382.1</ele>
        <time>2013-10-09T11:53:00Z</time>
      </trkpt>
      <trkpt lat="43.21787" lon="5.45772">
        <ele>377.7</ele>
        <time>2013-10-09T11:53:05Z</time>
      </trkpt>
      <trkpt lat="43.21788" lon="5.45766">
        <ele>385.2</ele>
        <time>2013-10-09T11:53:21Z</time>
      </trkpt>
      <trkpt lat="43.21788" lon="5.45766">
        <ele>385.5</ele>
        <time>2013-10-09T11:53:22Z</time>
      </trkpt>
      <trkpt lat="43.21783" lon="5.45756">
        <ele>382</ele>
        <time>2013-10-09T11:53:46Z</time>
      </trkpt>
      <trkpt lat="43.21785" lon="5.45762">
        <ele>377.2</ele>
        <time>2013-10-09T11:53:56Z</time>
      </trkpt>
      <trkpt lat="43.21788" lon="5.45766">
        <ele>376.2</ele>
        <time>2013-10-09T11:53:59Z</time>
      </trkpt>
      <trkpt lat="43.2179" lon="5.4577">
        <ele>371.2</ele>
        <time>2013-10-09T11:54:03Z</time>
      </trkpt>
      <trkpt lat="43.21786" lon="5.45773">
        <ele>363.2</ele>
        <time>2013-10-09T11:54:14Z</time>
      </trkpt>
      <trkpt lat="43.21782" lon="5.45772">
        <ele>361</ele>
        <time>2013-10-09T11:54:18Z</time>
      </trkpt>
      <trkpt lat="43.21778" lon="5.4577">
        <ele>358.2</ele>
        <time>2013-10-09T11:54:22Z</time>
      </trkpt>
      <trkpt lat="43.21778" lon="5.45769">
        <ele>357.5</ele>
        <time>2013-10-09T11:54:23Z</time>
      </trkpt>
      <trkpt lat="43.21772" lon="5.45764">
        <ele>352.2</ele>
        <time>2013-10-09T11:54:31Z</time>
      </trkpt>
      <trkpt lat="43.21774" lon="5.45769">
        <ele>355.8</ele>
        <time>2013-10-09T11:54:47Z</time>
      </trkpt>
      <trkpt lat="43.21776" lon="5.45775">
        <ele>359.5</ele>
        <time>2013-10-09T11:55:01Z</time>
      </trkpt>
      <trkpt lat="43.21773" lon="5.45771">
        <ele>360.1</ele>
        <time>2013-10-09T11:55:15Z</time>
      </trkpt>
      <trkpt lat="43.2177" lon="5.45767">
        <ele>361.1</ele>
        <time>2013-10-09T11:55:20Z</time>
      </trkpt>
      <trkpt lat="43.21768" lon="5.45762">
        <ele>365.3</ele>
        <time>2013-10-09T11:55:34Z</time>
      </trkpt>
      <trkpt lat="43.21768" lon="5.45761">
        <ele>365.7</ele>
        <time>2013-10-09T11:55:35Z</time>
      </trkpt>
      <trkpt lat="43.21762" lon="5.45757">
        <ele>354.1</ele>
        <time>2013-10-09T11:55:58Z</time>
      </trkpt>
      <trkpt lat="43.21757" lon="5.45757">
        <ele>356.6</ele>
        <time>2013-10-09T11:56:19Z</time>
      </trkpt>
      <trkpt lat="43.21754" lon="5.45761">
        <ele>349.6</ele>
        <time>2013-10-09T11:56:34Z</time>
      </trkpt>
      <trkpt lat="43.2175" lon="5.45763">
        <ele>342.6</ele>
        <time>2013-10-09T11:56:42Z</time>
      </trkpt>
      <trkpt lat="43.21749" lon="5.45763">
        <ele>341.7</ele>
        <time>2013-10-09T11:56:43Z</time>
      </trkpt>
      <trkpt lat="43.21744" lon="5.45771">
        <ele>339.2</ele>
        <time>2013-10-09T11:56:57Z</time>
      </trkpt>
      <trkpt lat="43.2174" lon="5.45769">
        <ele>349.6</ele>
        <time>2013-10-09T11:57:22Z</time>
      </trkpt>
      <trkpt lat="43.21737" lon="5.45766">
        <ele>344.8</ele>
        <time>2013-10-09T11:57:27Z</time>
      </trkpt>
      <trkpt lat="43.21733" lon="5.45764">
        <ele>341</ele>
        <time>2013-10-09T11:57:38Z</time>
      </trkpt>
      <trkpt lat="43.21731" lon="5.45759">
        <ele>344.2</ele>
        <time>2013-10-09T11:57:51Z</time>
      </trkpt>
      <trkpt lat="43.21731" lon="5.45758">
        <ele>346.5</ele>
        <time>2013-10-09T11:57:52Z</time>
      </trkpt>
      <trkpt lat="43.21724" lon="5.45754">
        <ele>343.2</ele>
        <time>2013-10-09T11:58:17Z</time>
      </trkpt>
      <trkpt lat="43.2172" lon="5.45758">
        <ele>335.7</ele>
        <time>2013-10-09T11:58:30Z</time>
      </trkpt>
      <trkpt lat="43.21719" lon="5.45764">
        <ele>335.1</ele>
        <time>2013-10-09T11:58:38Z</time>
      </trkpt>
      <trkpt lat="43.21715" lon="5.45767">
        <ele>331.6</ele>
        <time>2013-10-09T11:58:47Z</time>
      </trkpt>
      <trkpt lat="43.21713" lon="5.45764">
        <ele>328.5</ele>
        <time>2013-10-09T11:58:53Z</time>
      </trkpt>
      <trkpt lat="43.21712" lon="5.45762">
        <ele>327.7</ele>
        <time>2013-10-09T11:58:54Z</time>
      </trkpt>
      <trkpt lat="43.21709" lon="5.45757">
        <ele>330</ele>
        <time>2013-10-09T11:59:01Z</time>
      </trkpt>
      <trkpt lat="43.2171" lon="5.45763">
        <ele>326.7</ele>
        <time>2013-10-09T11:59:17Z</time>
      </trkpt>
      <trkpt lat="43.21707" lon="5.45759">
        <ele>334.5</ele>
        <time>2013-10-09T11:59:43Z</time>
      </trkpt>
      <trkpt lat="43.21709" lon="5.45755">
        <ele>333.2</ele>
        <time>2013-10-09T11:59:59Z</time>
      </trkpt>
      <trkpt lat="43.2171" lon="5.45754">
        <ele>334.1</ele>
        <time>2013-10-09T12:00:00Z</time>
      </trkpt>
      <trkpt lat="43.2171" lon="5.45749">
        <ele>326.7</ele>
        <time>2013-10-09T12:00:24Z</time>
      </trkpt>
      <trkpt lat="43.21707" lon="5.45745">
        <ele>322.7</ele>
        <time>2013-10-09T12:00:31Z</time>
      </trkpt>
      <trkpt lat="43.21712" lon="5.45744">
        <ele>321</ele>
        <time>2013-10-09T12:00:50Z</time>
      </trkpt>
      <trkpt lat="43.21708" lon="5.45741">
        <ele>317.7</ele>
        <time>2013-10-09T12:01:06Z</time>
      </trkpt>
      <trkpt lat="43.21707" lon="5.4574">
        <ele>316.1</ele>
        <time>2013-10-09T12:01:07Z</time>
      </trkpt>
      <trkpt lat="43.21701" lon="5.45735">
        <ele>307</ele>
        <time>2013-10-09T12:01:15Z</time>
      </trkpt>
      <trkpt lat="43.21698" lon="5.45731">
        <ele>303.7</ele>
        <time>2013-10-09T12:01:21Z</time>
      </trkpt>
      <trkpt lat="43.21696" lon="5.45727">
        <ele>306.2</ele>
        <time>2013-10-09T12:01:30Z</time>
      </trkpt>
      <trkpt lat="43.217" lon="5.45724">
        <ele>303.2</ele>
        <time>2013-10-09T12:01:56Z</time>
      </trkpt>
      <trkpt lat="43.21703" lon="5.45729">
        <ele>319.5</ele>
        <time>2013-10-09T12:02:10Z</time>
      </trkpt>
      <trkpt lat="43.21703" lon="5.45729">
        <ele>320.7</ele>
        <time>2013-10-09T12:02:11Z</time>
      </trkpt>
      <trkpt lat="43.21695" lon="5.45726">
        <ele>309.1</ele>
        <time>2013-10-09T12:02:37Z</time>
      </trkpt>
      <trkpt lat="43.21692" lon="5.45723">
        <ele>307.1</ele>
        <time>2013-10-09T12:02:42Z</time>
      </trkpt>
      <trkpt lat="43.2169" lon="5.45718">
        <ele>308.5</ele>
        <time>2013-10-09T12:02:50Z</time>
      </trkpt>
      <trkpt lat="43.21688" lon="5.45713">
        <ele>309</ele>
        <time>2013-10-09T12:02:58Z</time>
      </trkpt>
      <trkpt lat="43.21685" lon="5.45709">
        <ele>307.6</ele>
        <time>2013-10-09T12:03:04Z</time>
      </trkpt>
      <trkpt lat="43.21682" lon="5.45706">
        <ele>305.3</ele>
        <time>2013-10-09T12:03:09Z</time>
      </trkpt>
      <trkpt lat="43.21679" lon="5.45703">
        <ele>304.2</ele>
        <time>2013-10-09T12:03:13Z</time>
      </trkpt>
      <trkpt lat="43.21678" lon="5.45702">
        <ele>303.7</ele>
        <time>2013-10-09T12:03:14Z</time>
      </trkpt>
      <trkpt lat="43.21672" lon="5.45696">
        <ele>302.6</ele>
        <time>2013-10-09T12:03:22Z</time>
      </trkpt>
      <trkpt lat="43.21669" lon="5.45692">
        <ele>302.6</ele>
        <time>2013-10-09T12:03:27Z</time>
      </trkpt>
      <trkpt lat="43.21667" lon="5.45687">
        <ele>302.3</ele>
        <time>2013-10-09T12:03:32Z</time>
      </trkpt>
      <trkpt lat="43.21664" lon="5.45683">
        <ele>300.7</ele>
        <time>2013-10-09T12:03:38Z</time>
      </trkpt>
      <trkpt lat="43.21661" lon="5.45679">
        <ele>299.7</ele>
        <time>2013-10-09T12:03:43Z</time>
      </trkpt>
      <trkpt lat="43.21659" lon="5.45674">
        <ele>299.5</ele>
        <time>2013-10-09T12:03:47Z</time>
      </trkpt>
      <trkpt lat="43.21657" lon="5.45669">
        <ele>299.7</ele>
        <time>2013-10-09T12:03:51Z</time>
      </trkpt>
      <trkpt lat="43.21655" lon="5.45664">
        <ele>300.6</ele>
        <time>2013-10-09T12:03:56Z</time>
      </trkpt>
      <trkpt lat="43.21653" lon="5.45659">
        <ele>302.1</ele>
        <time>2013-10-09T12:04:00Z</time>
      </trkpt>
      <trkpt lat="43.21651" lon="5.45653">
        <ele>301.7</ele>
        <time>2013-10-09T12:04:07Z</time>
      </trkpt>
      <trkpt lat="43.21649" lon="5.45649">
        <ele>301.1</ele>
        <time>2013-10-09T12:04:12Z</time>
      </trkpt>
      <trkpt lat="43.21648" lon="5.45643">
        <ele>299.2</ele>
        <time>2013-10-09T12:04:18Z</time>
      </trkpt>
      <trkpt lat="43.21648" lon="5.45642">
        <ele>299.2</ele>
        <time>2013-10-09T12:04:19Z</time>
      </trkpt>
      <trkpt lat="43.21646" lon="5.45633">
        <ele>297.5</ele>
        <time>2013-10-09T12:04:26Z</time>
      </trkpt>
      <trkpt lat="43.21644" lon="5.45627">
        <ele>296.2</ele>
        <time>2013-10-09T12:04:30Z</time>
      </trkpt>
      <trkpt lat="43.21643" lon="5.45622">
        <ele>294.7</ele>
        <time>2013-10-09T12:04:34Z</time>
      </trkpt>
      <trkpt lat="43.21641" lon="5.45618">
        <ele>293.7</ele>
        <time>2013-10-09T12:04:38Z</time>
      </trkpt>
      <trkpt lat="43.2164" lon="5.45613">
        <ele>293.1</ele>
        <time>2013-10-09T12:04:42Z</time>
      </trkpt>
      <trkpt lat="43.21641" lon="5.45607">
        <ele>293.2</ele>
        <time>2013-10-09T12:04:46Z</time>
      </trkpt>
      <trkpt lat="43.21639" lon="5.45602">
        <ele>291.2</ele>
        <time>2013-10-09T12:04:51Z</time>
      </trkpt>
      <trkpt lat="43.21637" lon="5.45597">
        <ele>289.8</ele>
        <time>2013-10-09T12:04:57Z</time>
      </trkpt>
      <trkpt lat="43.21635" lon="5.45594">
        <ele>289.3</ele>
        <time>2013-10-09T12:05:00Z</time>
      </trkpt>
      <trkpt lat="43.21633" lon="5.45589">
        <ele>288.1</ele>
        <time>2013-10-09T12:05:04Z</time>
      </trkpt>
      <trkpt lat="43.21631" lon="5.45584">
        <ele>286</ele>
        <time>2013-10-09T12:05:09Z</time>
      </trkpt>
      <trkpt lat="43.21633" lon="5.45579">
        <ele>286.2</ele>
        <time>2013-10-09T12:05:13Z</time>
      </trkpt>
      <trkpt lat="43.21632" lon="5.45573">
        <ele>286.7</ele>
        <time>2013-10-09T12:05:18Z</time>
      </trkpt>
      <trkpt lat="43.2163" lon="5.45568">
        <ele>286.8</ele>
        <time>2013-10-09T12:05:22Z</time>
      </trkpt>
      <trkpt lat="43.21629" lon="5.45567">
        <ele>286.8</ele>
        <time>2013-10-09T12:05:23Z</time>
      </trkpt>
      <trkpt lat="43.21629" lon="5.45557">
        <ele>287.2</ele>
        <time>2013-10-09T12:05:32Z</time>
      </trkpt>
      <trkpt lat="43.21628" lon="5.45552">
        <ele>286.1</ele>
        <time>2013-10-09T12:05:38Z</time>
      </trkpt>
      <trkpt lat="43.21626" lon="5.45548">
        <ele>285.6</ele>
        <time>2013-10-09T12:05:41Z</time>
      </trkpt>
      <trkpt lat="43.21625" lon="5.45543">
        <ele>285.7</ele>
        <time>2013-10-09T12:05:44Z</time>
      </trkpt>
      <trkpt lat="43.21623" lon="5.45538">
        <ele>285.3</ele>
        <time>2013-10-09T12:05:48Z</time>
      </trkpt>
      <trkpt lat="43.21622" lon="5.45532">
        <ele>285.1</ele>
        <time>2013-10-09T12:05:52Z</time>
      </trkpt>
      <trkpt lat="43.21621" lon="5.45527">
        <ele>284.8</ele>
        <time>2013-10-09T12:05:55Z</time>
      </trkpt>
      <trkpt lat="43.21619" lon="5.45522">
        <ele>284.7</ele>
        <time>2013-10-09T12:05:58Z</time>
      </trkpt>
      <trkpt lat="43.21618" lon="5.45517">
        <ele>283.7</ele>
        <time>2013-10-09T12:06:02Z</time>
      </trkpt>
      <trkpt lat="43.2162" lon="5.45512">
        <ele>284.8</ele>
        <time>2013-10-09T12:06:05Z</time>
      </trkpt>
      <trkpt lat="43.2162" lon="5.45506">
        <ele>285.8</ele>
        <time>2013-10-09T12:06:08Z</time>
      </trkpt>
      <trkpt lat="43.21618" lon="5.45502">
        <ele>285.1</ele>
        <time>2013-10-09T12:06:12Z</time>
      </trkpt>
      <trkpt lat="43.21616" lon="5.45496">
        <ele>282.8</ele>
        <time>2013-10-09T12:06:18Z</time>
      </trkpt>
      <trkpt lat="43.21615" lon="5.45492">
        <ele>281.3</ele>
        <time>2013-10-09T12:06:26Z</time>
      </trkpt>
      <trkpt lat="43.21614" lon="5.45491">
        <ele>281.2</ele>
        <time>2013-10-09T12:06:27Z</time>
      </trkpt>
      <trkpt lat="43.2161" lon="5.45482">
        <ele>281.6</ele>
        <time>2013-10-09T12:06:38Z</time>
      </trkpt>
      <trkpt lat="43.21608" lon="5.45477">
        <ele>281.1</ele>
        <time>2013-10-09T12:06:43Z</time>
      </trkpt>
      <trkpt lat="43.21606" lon="5.45473">
        <ele>280.7</ele>
        <time>2013-10-09T12:06:48Z</time>
      </trkpt>
      <trkpt lat="43.21602" lon="5.4547">
        <ele>279.2</ele>
        <time>2013-10-09T12:06:52Z</time>
      </trkpt>
      <trkpt lat="43.21598" lon="5.45469">
        <ele>277.5</ele>
        <time>2013-10-09T12:06:57Z</time>
      </trkpt>
      <trkpt lat="43.21595" lon="5.45464">
        <ele>277.2</ele>
        <time>2013-10-09T12:07:02Z</time>
      </trkpt>
      <trkpt lat="43.21592" lon="5.4546">
        <ele>277.7</ele>
        <time>2013-10-09T12:07:07Z</time>
      </trkpt>
      <trkpt lat="43.21589" lon="5.45457">
        <ele>277.3</ele>
        <time>2013-10-09T12:07:12Z</time>
      </trkpt>
      <trkpt lat="43.21586" lon="5.45453">
        <ele>277.3</ele>
        <time>2013-10-09T12:07:17Z</time>
      </trkpt>
      <trkpt lat="43.21583" lon="5.45449">
        <ele>278.3</ele>
        <time>2013-10-09T12:07:22Z</time>
      </trkpt>
      <trkpt lat="43.21579" lon="5.45447">
        <ele>276.7</ele>
        <time>2013-10-09T12:07:27Z</time>
      </trkpt>
      <trkpt lat="43.21579" lon="5.45447">
        <ele>276.2</ele>
        <time>2013-10-09T12:07:28Z</time>
      </trkpt>
      <trkpt lat="43.21572" lon="5.4544">
        <ele>275.2</ele>
        <time>2013-10-09T12:07:41Z</time>
      </trkpt>
      <trkpt lat="43.2157" lon="5.45435">
        <ele>276.2</ele>
        <time>2013-10-09T12:07:46Z</time>
      </trkpt>
      <trkpt lat="43.21571" lon="5.45429">
        <ele>274.5</ele>
        <time>2013-10-09T12:07:51Z</time>
      </trkpt>
      <trkpt lat="43.21571" lon="5.45423">
        <ele>270.5</ele>
        <time>2013-10-09T12:08:01Z</time>
      </trkpt>
      <trkpt lat="43.21571" lon="5.45418">
        <ele>268.2</ele>
        <time>2013-10-09T12:08:09Z</time>
      </trkpt>
      <trkpt lat="43.21573" lon="5.45412">
        <ele>267.7</ele>
        <time>2013-10-09T12:08:14Z</time>
      </trkpt>
      <trkpt lat="43.21573" lon="5.45407">
        <ele>267.2</ele>
        <time>2013-10-09T12:08:18Z</time>
      </trkpt>
      <trkpt lat="43.21573" lon="5.45401">
        <ele>266.2</ele>
        <time>2013-10-09T12:08:22Z</time>
      </trkpt>
      <trkpt lat="43.21574" lon="5.45397">
        <ele>265.8</ele>
        <time>2013-10-09T12:08:26Z</time>
      </trkpt>
      <trkpt lat="43.21575" lon="5.45391">
        <ele>264.6</ele>
        <time>2013-10-09T12:08:30Z</time>
      </trkpt>
      <trkpt lat="43.21575" lon="5.4539">
        <ele>264.1</ele>
        <time>2013-10-09T12:08:31Z</time>
      </trkpt>
      <trkpt lat="43.21575" lon="5.4538">
        <ele>261.5</ele>
        <time>2013-10-09T12:08:39Z</time>
      </trkpt>
      <trkpt lat="43.21575" lon="5.45375">
        <ele>260.2</ele>
        <time>2013-10-09T12:08:44Z</time>
      </trkpt>
      <trkpt lat="43.21575" lon="5.45369">
        <ele>259.2</ele>
        <time>2013-10-09T12:08:49Z</time>
      </trkpt>
      <trkpt lat="43.21576" lon="5.45363">
        <ele>258.2</ele>
        <time>2013-10-09T12:08:55Z</time>
      </trkpt>
      <trkpt lat="43.21576" lon="5.45358">
        <ele>259.8</ele>
        <time>2013-10-09T12:08:59Z</time>
      </trkpt>
      <trkpt lat="43.21576" lon="5.45352">
        <ele>260.7</ele>
        <time>2013-10-09T12:09:03Z</time>
      </trkpt>
      <trkpt lat="43.21578" lon="5.45347">
        <ele>261.2</ele>
        <time>2013-10-09T12:09:10Z</time>
      </trkpt>
      <trkpt lat="43.21579" lon="5.45341">
        <ele>258.7</ele>
        <time>2013-10-09T12:09:17Z</time>
      </trkpt>
      <trkpt lat="43.21581" lon="5.45336">
        <ele>258</ele>
        <time>2013-10-09T12:09:29Z</time>
      </trkpt>
      <trkpt lat="43.21583" lon="5.45331">
        <ele>256.5</ele>
        <time>2013-10-09T12:09:36Z</time>
      </trkpt>
      <trkpt lat="43.21584" lon="5.45331">
        <ele>256.2</ele>
        <time>2013-10-09T12:09:37Z</time>
      </trkpt>
      <trkpt lat="43.21588" lon="5.45322">
        <ele>253.5</ele>
        <time>2013-10-09T12:09:51Z</time>
      </trkpt>
      <trkpt lat="43.21591" lon="5.45318">
        <ele>252</ele>
        <time>2013-10-09T12:10:00Z</time>
      </trkpt>
      <trkpt lat="43.21593" lon="5.45313">
        <ele>250.3</ele>
        <time>2013-10-09T12:10:09Z</time>
      </trkpt>
      <trkpt lat="43.21597" lon="5.4531">
        <ele>250.3</ele>
        <time>2013-10-09T12:10:16Z</time>
      </trkpt>
      <trkpt lat="43.21593" lon="5.45309">
        <ele>246.1</ele>
        <time>2013-10-09T12:10:37Z</time>
      </trkpt>
      <trkpt lat="43.21592" lon="5.4531">
        <ele>246</ele>
        <time>2013-10-09T12:10:38Z</time>
      </trkpt>
      <trkpt lat="43.21585" lon="5.45311">
        <ele>245.5</ele>
        <time>2013-10-09T12:10:49Z</time>
      </trkpt>
      <trkpt lat="43.2158" lon="5.4531">
        <ele>244</ele>
        <time>2013-10-09T12:10:56Z</time>
      </trkpt>
      <trkpt lat="43.21576" lon="5.45309">
        <ele>243.5</ele>
        <time>2013-10-09T12:11:02Z</time>
      </trkpt>
      <trkpt lat="43.21572" lon="5.45308">
        <ele>243.6</ele>
        <time>2013-10-09T12:11:08Z</time>
      </trkpt>
      <trkpt lat="43.21568" lon="5.45308">
        <ele>242.6</ele>
        <time>2013-10-09T12:11:16Z</time>
      </trkpt>
      <trkpt lat="43.21565" lon="5.45312">
        <ele>241.6</ele>
        <time>2013-10-09T12:11:23Z</time>
      </trkpt>
      <trkpt lat="43.21561" lon="5.45313">
        <ele>240.1</ele>
        <time>2013-10-09T12:11:31Z</time>
      </trkpt>
      <trkpt lat="43.21557" lon="5.45315">
        <ele>239.1</ele>
        <time>2013-10-09T12:11:38Z</time>
      </trkpt>
      <trkpt lat="43.21556" lon="5.45315">
        <ele>238.8</ele>
        <time>2013-10-09T12:11:39Z</time>
      </trkpt>
      <trkpt lat="43.2155" lon="5.4531">
        <ele>232.1</ele>
        <time>2013-10-09T12:11:52Z</time>
      </trkpt>
      <trkpt lat="43.21546" lon="5.45308">
        <ele>229.8</ele>
        <time>2013-10-09T12:11:57Z</time>
      </trkpt>
      <trkpt lat="43.21544" lon="5.45303">
        <ele>229.6</ele>
        <time>2013-10-09T12:12:02Z</time>
      </trkpt>
      <trkpt lat="43.21545" lon="5.45297">
        <ele>230.6</ele>
        <time>2013-10-09T12:12:09Z</time>
      </trkpt>
      <trkpt lat="43.21544" lon="5.45291">
        <ele>229.6</ele>
        <time>2013-10-09T12:12:14Z</time>
      </trkpt>
      <trkpt lat="43.21547" lon="5.45287">
        <ele>229.1</ele>
        <time>2013-10-09T12:12:18Z</time>
      </trkpt>
      <trkpt lat="43.2155" lon="5.45283">
        <ele>228.8</ele>
        <time>2013-10-09T12:12:22Z</time>
      </trkpt>
      <trkpt lat="43.21553" lon="5.4528">
        <ele>228.5</ele>
        <time>2013-10-09T12:12:26Z</time>
      </trkpt>
      <trkpt lat="43.21557" lon="5.45277">
        <ele>227.8</ele>
        <time>2013-10-09T12:12:30Z</time>
      </trkpt>
      <trkpt lat="43.21559" lon="5.45274">
        <ele>227</ele>
        <time>2013-10-09T12:12:34Z</time>
      </trkpt>
      <trkpt lat="43.21563" lon="5.45271">
        <ele>226.1</ele>
        <time>2013-10-09T12:12:42Z</time>
      </trkpt>
      <trkpt lat="43.21563" lon="5.45271">
        <ele>226.1</ele>
        <time>2013-10-09T12:12:43Z</time>
      </trkpt>
      <trkpt lat="43.21566" lon="5.45261">
        <ele>222.3</ele>
        <time>2013-10-09T12:12:55Z</time>
      </trkpt>
      <trkpt lat="43.21568" lon="5.45257">
        <ele>221.1</ele>
        <time>2013-10-09T12:12:59Z</time>
      </trkpt>
      <trkpt lat="43.2157" lon="5.45252">
        <ele>219.6</ele>
        <time>2013-10-09T12:13:04Z</time>
      </trkpt>
      <trkpt lat="43.21571" lon="5.45247">
        <ele>218.8</ele>
        <time>2013-10-09T12:13:08Z</time>
      </trkpt>
      <trkpt lat="43.21573" lon="5.45243">
        <ele>218</ele>
        <time>2013-10-09T12:13:12Z</time>
      </trkpt>
      <trkpt lat="43.21575" lon="5.45238">
        <ele>217.3</ele>
        <time>2013-10-09T12:13:17Z</time>
      </trkpt>
      <trkpt lat="43.21578" lon="5.45234">
        <ele>216.5</ele>
        <time>2013-10-09T12:13:22Z</time>
      </trkpt>
      <trkpt lat="43.2158" lon="5.45229">
        <ele>215.6</ele>
        <time>2013-10-09T12:13:27Z</time>
      </trkpt>
      <trkpt lat="43.21582" lon="5.45224">
        <ele>214.6</ele>
        <time>2013-10-09T12:13:32Z</time>
      </trkpt>
      <trkpt lat="43.21585" lon="5.45219">
        <ele>213.8</ele>
        <time>2013-10-09T12:13:37Z</time>
      </trkpt>
      <trkpt lat="43.21586" lon="5.45213">
        <ele>211.8</ele>
        <time>2013-10-09T12:13:44Z</time>
      </trkpt>
      <trkpt lat="43.21586" lon="5.45212">
        <ele>211.6</ele>
        <time>2013-10-09T12:13:45Z</time>
      </trkpt>
      <trkpt lat="43.21591" lon="5.45204">
        <ele>209.6</ele>
        <time>2013-10-09T12:13:56Z</time>
      </trkpt>
      <trkpt lat="43.21594" lon="5.452">
        <ele>208.1</ele>
        <time>2013-10-09T12:14:01Z</time>
      </trkpt>
      <trkpt lat="43.21597" lon="5.452">
        <ele>208.8</ele>
        <time>2013-10-09T12:14:02Z</time>
      </trkpt>
      <trkpt lat="43.21599" lon="5.45201">
        <ele>209.5</ele>
        <time>2013-10-09T12:14:03Z</time>
      </trkpt>
      <trkpt lat="43.21603" lon="5.45203">
        <ele>210.3</ele>
        <time>2013-10-09T12:14:05Z</time>
      </trkpt>
      <trkpt lat="43.21607" lon="5.45205">
        <ele>211</ele>
        <time>2013-10-09T12:14:08Z</time>
      </trkpt>
      <trkpt lat="43.21611" lon="5.45209">
        <ele>211.6</ele>
        <time>2013-10-09T12:14:11Z</time>
      </trkpt>
      <trkpt lat="43.21614" lon="5.45212">
        <ele>211.6</ele>
        <time>2013-10-09T12:14:14Z</time>
      </trkpt>
      <trkpt lat="43.21617" lon="5.45214">
        <ele>212.1</ele>
        <time>2013-10-09T12:14:17Z</time>
      </trkpt>
      <trkpt lat="43.21621" lon="5.45217">
        <ele>212.5</ele>
        <time>2013-10-09T12:14:20Z</time>
      </trkpt>
      <trkpt lat="43.21625" lon="5.45219">
        <ele>212.6</ele>
        <time>2013-10-09T12:14:23Z</time>
      </trkpt>
      <trkpt lat="43.21628" lon="5.45221">
        <ele>212.8</ele>
        <time>2013-10-09T12:14:26Z</time>
      </trkpt>
      <trkpt lat="43.21632" lon="5.45223">
        <ele>212.8</ele>
        <time>2013-10-09T12:14:29Z</time>
      </trkpt>
      <trkpt lat="43.21635" lon="5.45225">
        <ele>212.8</ele>
        <time>2013-10-09T12:14:32Z</time>
      </trkpt>
      <trkpt lat="43.21639" lon="5.45228">
        <ele>212.6</ele>
        <time>2013-10-09T12:14:36Z</time>
      </trkpt>
      <trkpt lat="43.21642" lon="5.45231">
        <ele>212.1</ele>
        <time>2013-10-09T12:14:39Z</time>
      </trkpt>
      <trkpt lat="43.21645" lon="5.45234">
        <ele>212.5</ele>
        <time>2013-10-09T12:14:42Z</time>
      </trkpt>
      <trkpt lat="43.21648" lon="5.45237">
        <ele>212.6</ele>
        <time>2013-10-09T12:14:45Z</time>
      </trkpt>
      <trkpt lat="43.21649" lon="5.45238">
        <ele>212.8</ele>
        <time>2013-10-09T12:14:46Z</time>
      </trkpt>
      <trkpt lat="43.21654" lon="5.45244">
        <ele>213.3</ele>
        <time>2013-10-09T12:14:51Z</time>
      </trkpt>
      <trkpt lat="43.21657" lon="5.45247">
        <ele>213.8</ele>
        <time>2013-10-09T12:14:54Z</time>
      </trkpt>
      <trkpt lat="43.21659" lon="5.45252">
        <ele>213.6</ele>
        <time>2013-10-09T12:14:58Z</time>
      </trkpt>
      <trkpt lat="43.21662" lon="5.45256">
        <ele>213.3</ele>
        <time>2013-10-09T12:15:02Z</time>
      </trkpt>
      <trkpt lat="43.21665" lon="5.45259">
        <ele>213.6</ele>
        <time>2013-10-09T12:15:05Z</time>
      </trkpt>
      <trkpt lat="43.21668" lon="5.45262">
        <ele>213.1</ele>
        <time>2013-10-09T12:15:08Z</time>
      </trkpt>
      <trkpt lat="43.21671" lon="5.45265">
        <ele>214.8</ele>
        <time>2013-10-09T12:15:11Z</time>
      </trkpt>
      <trkpt lat="43.21673" lon="5.45266">
        <ele>215.5</ele>
        <time>2013-10-09T12:15:13Z</time>
      </trkpt>
      <trkpt lat="43.21677" lon="5.45269">
        <ele>216.8</ele>
        <time>2013-10-09T12:15:16Z</time>
      </trkpt>
      <trkpt lat="43.2168" lon="5.45272">
        <ele>217.3</ele>
        <time>2013-10-09T12:15:21Z</time>
      </trkpt>
      <trkpt lat="43.21683" lon="5.45274">
        <ele>216.6</ele>
        <time>2013-10-09T12:15:24Z</time>
      </trkpt>
      <trkpt lat="43.21686" lon="5.45276">
        <ele>217.1</ele>
        <time>2013-10-09T12:15:26Z</time>
      </trkpt>
      <trkpt lat="43.21689" lon="5.45277">
        <ele>216.8</ele>
        <time>2013-10-09T12:15:28Z</time>
      </trkpt>
      <trkpt lat="43.21693" lon="5.45279">
        <ele>216.6</ele>
        <time>2013-10-09T12:15:30Z</time>
      </trkpt>
      <trkpt lat="43.21697" lon="5.45282">
        <ele>217.3</ele>
        <time>2013-10-09T12:15:33Z</time>
      </trkpt>
      <trkpt lat="43.217" lon="5.45285">
        <ele>218.1</ele>
        <time>2013-10-09T12:15:36Z</time>
      </trkpt>
      <trkpt lat="43.21704" lon="5.45287">
        <ele>218.1</ele>
        <time>2013-10-09T12:15:40Z</time>
      </trkpt>
      <trkpt lat="43.21707" lon="5.45286">
        <ele>218.5</ele>
        <time>2013-10-09T12:15:44Z</time>
      </trkpt>
      <trkpt lat="43.21711" lon="5.45284">
        <ele>220</ele>
        <time>2013-10-09T12:15:50Z</time>
      </trkpt>
      <trkpt lat="43.21714" lon="5.45284">
        <ele>220.6</ele>
        <time>2013-10-09T12:15:51Z</time>
      </trkpt>
      <trkpt lat="43.21716" lon="5.45283">
        <ele>221.1</ele>
        <time>2013-10-09T12:15:53Z</time>
      </trkpt>
      <trkpt lat="43.2172" lon="5.45283">
        <ele>222.3</ele>
        <time>2013-10-09T12:15:54Z</time>
      </trkpt>
      <trkpt lat="43.21725" lon="5.45283">
        <ele>222.3</ele>
        <time>2013-10-09T12:15:56Z</time>
      </trkpt>
      <trkpt lat="43.21728" lon="5.45282">
        <ele>222.3</ele>
        <time>2013-10-09T12:15:58Z</time>
      </trkpt>
      <trkpt lat="43.21732" lon="5.45281">
        <ele>221.5</ele>
        <time>2013-10-09T12:16:00Z</time>
      </trkpt>
      <trkpt lat="43.21736" lon="5.45278">
        <ele>219.1</ele>
        <time>2013-10-09T12:16:03Z</time>
      </trkpt>
      <trkpt lat="43.21737" lon="5.45273">
        <ele>216.8</ele>
        <time>2013-10-09T12:16:07Z</time>
      </trkpt>
      <trkpt lat="43.21739" lon="5.45268">
        <ele>216.8</ele>
        <time>2013-10-09T12:16:10Z</time>
      </trkpt>
      <trkpt lat="43.21738" lon="5.45264">
        <ele>215.5</ele>
        <time>2013-10-09T12:16:13Z</time>
      </trkpt>
      <trkpt lat="43.21736" lon="5.4526">
        <ele>214.6</ele>
        <time>2013-10-09T12:16:16Z</time>
      </trkpt>
      <trkpt lat="43.21735" lon="5.45255">
        <ele>214</ele>
        <time>2013-10-09T12:16:19Z</time>
      </trkpt>
      <trkpt lat="43.21733" lon="5.45251">
        <ele>212.8</ele>
        <time>2013-10-09T12:16:22Z</time>
      </trkpt>
      <trkpt lat="43.21732" lon="5.45247">
        <ele>212.3</ele>
        <time>2013-10-09T12:16:25Z</time>
      </trkpt>
      <trkpt lat="43.2173" lon="5.45242">
        <ele>212</ele>
        <time>2013-10-09T12:16:28Z</time>
      </trkpt>
      <trkpt lat="43.21728" lon="5.45237">
        <ele>211.8</ele>
        <time>2013-10-09T12:16:31Z</time>
      </trkpt>
      <trkpt lat="43.21728" lon="5.45232">
        <ele>212.1</ele>
        <time>2013-10-09T12:16:34Z</time>
      </trkpt>
      <trkpt lat="43.21728" lon="5.45227">
        <ele>213.3</ele>
        <time>2013-10-09T12:16:37Z</time>
      </trkpt>
      <trkpt lat="43.21727" lon="5.45222">
        <ele>212.8</ele>
        <time>2013-10-09T12:16:40Z</time>
      </trkpt>
      <trkpt lat="43.21726" lon="5.45217">
        <ele>212.3</ele>
        <time>2013-10-09T12:16:43Z</time>
      </trkpt>
      <trkpt lat="43.21726" lon="5.45212">
        <ele>212.6</ele>
        <time>2013-10-09T12:16:46Z</time>
      </trkpt>
      <trkpt lat="43.21725" lon="5.45207">
        <ele>211.3</ele>
        <time>2013-10-09T12:16:49Z</time>
      </trkpt>
      <trkpt lat="43.21724" lon="5.45202">
        <ele>211.3</ele>
        <time>2013-10-09T12:16:52Z</time>
      </trkpt>
      <trkpt lat="43.21724" lon="5.452">
        <ele>211.3</ele>
        <time>2013-10-09T12:16:53Z</time>
      </trkpt>
      <trkpt lat="43.21722" lon="5.45192">
        <ele>211.8</ele>
        <time>2013-10-09T12:16:57Z</time>
      </trkpt>
      <trkpt lat="43.21721" lon="5.45187">
        <ele>211.6</ele>
        <time>2013-10-09T12:17:00Z</time>
      </trkpt>
      <trkpt lat="43.21721" lon="5.45182">
        <ele>210.6</ele>
        <time>2013-10-09T12:17:03Z</time>
      </trkpt>
      <trkpt lat="43.2172" lon="5.45178">
        <ele>209.3</ele>
        <time>2013-10-09T12:17:06Z</time>
      </trkpt>
      <trkpt lat="43.21719" lon="5.45172">
        <ele>208.6</ele>
        <time>2013-10-09T12:17:09Z</time>
      </trkpt>
      <trkpt lat="43.21719" lon="5.45168">
        <ele>208.3</ele>
        <time>2013-10-09T12:17:12Z</time>
      </trkpt>
      <trkpt lat="43.21719" lon="5.45162">
        <ele>208.6</ele>
        <time>2013-10-09T12:17:15Z</time>
      </trkpt>
      <trkpt lat="43.21718" lon="5.45157">
        <ele>208</ele>
        <time>2013-10-09T12:17:18Z</time>
      </trkpt>
      <trkpt lat="43.21719" lon="5.45151">
        <ele>208.1</ele>
        <time>2013-10-09T12:17:21Z</time>
      </trkpt>
      <trkpt lat="43.21719" lon="5.45146">
        <ele>208.1</ele>
        <time>2013-10-09T12:17:24Z</time>
      </trkpt>
      <trkpt lat="43.2172" lon="5.45141">
        <ele>207.6</ele>
        <time>2013-10-09T12:17:27Z</time>
      </trkpt>
      <trkpt lat="43.2172" lon="5.45135">
        <ele>206.6</ele>
        <time>2013-10-09T12:17:31Z</time>
      </trkpt>
      <trkpt lat="43.2172" lon="5.45131">
        <ele>205.6</ele>
        <time>2013-10-09T12:17:34Z</time>
      </trkpt>
      <trkpt lat="43.2172" lon="5.45125">
        <ele>206.5</ele>
        <time>2013-10-09T12:17:37Z</time>
      </trkpt>
      <trkpt lat="43.21721" lon="5.45119">
        <ele>207.1</ele>
        <time>2013-10-09T12:17:40Z</time>
      </trkpt>
      <trkpt lat="43.2172" lon="5.45116">
        <ele>206.6</ele>
        <time>2013-10-09T12:17:42Z</time>
      </trkpt>
      <trkpt lat="43.21718" lon="5.45111">
        <ele>207.3</ele>
        <time>2013-10-09T12:17:44Z</time>
      </trkpt>
      <trkpt lat="43.21716" lon="5.45107">
        <ele>206.8</ele>
        <time>2013-10-09T12:17:47Z</time>
      </trkpt>
      <trkpt lat="43.21715" lon="5.45101">
        <ele>207.3</ele>
        <time>2013-10-09T12:17:50Z</time>
      </trkpt>
      <trkpt lat="43.21714" lon="5.45097">
        <ele>207.5</ele>
        <time>2013-10-09T12:17:53Z</time>
      </trkpt>
      <trkpt lat="43.21713" lon="5.45095">
        <ele>207.6</ele>
        <time>2013-10-09T12:17:54Z</time>
      </trkpt>
      <trkpt lat="43.2171" lon="5.45087">
        <ele>207.8</ele>
        <time>2013-10-09T12:18:00Z</time>
      </trkpt>
      <trkpt lat="43.21708" lon="5.45083">
        <ele>207.6</ele>
        <time>2013-10-09T12:18:03Z</time>
      </trkpt>
      <trkpt lat="43.21705" lon="5.45079">
        <ele>207.1</ele>
        <time>2013-10-09T12:18:06Z</time>
      </trkpt>
      <trkpt lat="43.21703" lon="5.45075">
        <ele>206.6</ele>
        <time>2013-10-09T12:18:09Z</time>
      </trkpt>
      <trkpt lat="43.21701" lon="5.4507">
        <ele>206.8</ele>
        <time>2013-10-09T12:18:12Z</time>
      </trkpt>
      <trkpt lat="43.21699" lon="5.45066">
        <ele>206.8</ele>
        <time>2013-10-09T12:18:15Z</time>
      </trkpt>
      <trkpt lat="43.21697" lon="5.45062">
        <ele>207</ele>
        <time>2013-10-09T12:18:18Z</time>
      </trkpt>
      <trkpt lat="43.21695" lon="5.45058">
        <ele>206.6</ele>
        <time>2013-10-09T12:18:21Z</time>
      </trkpt>
      <trkpt lat="43.21693" lon="5.45054">
        <ele>206.3</ele>
        <time>2013-10-09T12:18:24Z</time>
      </trkpt>
      <trkpt lat="43.21691" lon="5.45052">
        <ele>206</ele>
        <time>2013-10-09T12:18:26Z</time>
      </trkpt>
      <trkpt lat="43.21689" lon="5.45048">
        <ele>207</ele>
        <time>2013-10-09T12:18:28Z</time>
      </trkpt>
      <trkpt lat="43.21686" lon="5.45045">
        <ele>207.6</ele>
        <time>2013-10-09T12:18:31Z</time>
      </trkpt>
      <trkpt lat="43.21683" lon="5.45042">
        <ele>207.6</ele>
        <time>2013-10-09T12:18:34Z</time>
      </trkpt>
      <trkpt lat="43.21679" lon="5.45039">
        <ele>207.3</ele>
        <time>2013-10-09T12:18:38Z</time>
      </trkpt>
      <trkpt lat="43.21676" lon="5.45035">
        <ele>207.3</ele>
        <time>2013-10-09T12:18:41Z</time>
      </trkpt>
      <trkpt lat="43.21675" lon="5.4503">
        <ele>206.6</ele>
        <time>2013-10-09T12:18:45Z</time>
      </trkpt>
      <trkpt lat="43.21675" lon="5.45024">
        <ele>205.3</ele>
        <time>2013-10-09T12:18:49Z</time>
      </trkpt>
      <trkpt lat="43.21676" lon="5.45019">
        <ele>204.1</ele>
        <time>2013-10-09T12:18:53Z</time>
      </trkpt>
      <trkpt lat="43.21677" lon="5.45014">
        <ele>202.8</ele>
        <time>2013-10-09T12:18:57Z</time>
      </trkpt>
      <trkpt lat="43.21677" lon="5.45012">
        <ele>202.6</ele>
        <time>2013-10-09T12:18:58Z</time>
      </trkpt>
      <trkpt lat="43.2168" lon="5.45003">
        <ele>201.3</ele>
        <time>2013-10-09T12:19:05Z</time>
      </trkpt>
      <trkpt lat="43.21681" lon="5.44998">
        <ele>201.3</ele>
        <time>2013-10-09T12:19:09Z</time>
      </trkpt>
      <trkpt lat="43.21681" lon="5.44992">
        <ele>203.3</ele>
        <time>2013-10-09T12:19:13Z</time>
      </trkpt>
      <trkpt lat="43.21683" lon="5.44988">
        <ele>204.1</ele>
        <time>2013-10-09T12:19:17Z</time>
      </trkpt>
      <trkpt lat="43.21685" lon="5.44983">
        <ele>204.1</ele>
        <time>2013-10-09T12:19:21Z</time>
      </trkpt>
      <trkpt lat="43.21687" lon="5.44979">
        <ele>204.1</ele>
        <time>2013-10-09T12:19:24Z</time>
      </trkpt>
      <trkpt lat="43.21688" lon="5.44974">
        <ele>204.3</ele>
        <time>2013-10-09T12:19:27Z</time>
      </trkpt>
      <trkpt lat="43.21691" lon="5.4497">
        <ele>204.3</ele>
        <time>2013-10-09T12:19:30Z</time>
      </trkpt>
      <trkpt lat="43.21693" lon="5.44966">
        <ele>204.5</ele>
        <time>2013-10-09T12:19:33Z</time>
      </trkpt>
      <trkpt lat="43.21695" lon="5.44962">
        <ele>204.8</ele>
        <time>2013-10-09T12:19:36Z</time>
      </trkpt>
      <trkpt lat="43.21698" lon="5.44957">
        <ele>204.8</ele>
        <time>2013-10-09T12:19:39Z</time>
      </trkpt>
      <trkpt lat="43.21701" lon="5.44954">
        <ele>205</ele>
        <time>2013-10-09T12:19:42Z</time>
      </trkpt>
      <trkpt lat="43.21704" lon="5.44951">
        <ele>205.1</ele>
        <time>2013-10-09T12:19:45Z</time>
      </trkpt>
      <trkpt lat="43.21707" lon="5.44948">
        <ele>205.3</ele>
        <time>2013-10-09T12:19:48Z</time>
      </trkpt>
      <trkpt lat="43.21711" lon="5.44944">
        <ele>205.3</ele>
        <time>2013-10-09T12:19:51Z</time>
      </trkpt>
      <trkpt lat="43.21714" lon="5.44942">
        <ele>205.6</ele>
        <time>2013-10-09T12:19:54Z</time>
      </trkpt>
      <trkpt lat="43.21718" lon="5.44939">
        <ele>205.3</ele>
        <time>2013-10-09T12:19:58Z</time>
      </trkpt>
      <trkpt lat="43.21719" lon="5.44938">
        <ele>205.1</ele>
        <time>2013-10-09T12:19:59Z</time>
      </trkpt>
      <trkpt lat="43.21725" lon="5.44934">
        <ele>205</ele>
        <time>2013-10-09T12:20:05Z</time>
      </trkpt>
      <trkpt lat="43.21729" lon="5.44932">
        <ele>204.6</ele>
        <time>2013-10-09T12:20:09Z</time>
      </trkpt>
      <trkpt lat="43.21732" lon="5.4493">
        <ele>204.6</ele>
        <time>2013-10-09T12:20:12Z</time>
      </trkpt>
      <trkpt lat="43.21736" lon="5.44927">
        <ele>204.5</ele>
        <time>2013-10-09T12:20:16Z</time>
      </trkpt>
      <trkpt lat="43.21739" lon="5.44923">
        <ele>204.5</ele>
        <time>2013-10-09T12:20:20Z</time>
      </trkpt>
      <trkpt lat="43.21742" lon="5.4492">
        <ele>204.3</ele>
        <time>2013-10-09T12:20:23Z</time>
      </trkpt>
      <trkpt lat="43.21744" lon="5.44917">
        <ele>204.1</ele>
        <time>2013-10-09T12:20:26Z</time>
      </trkpt>
      <trkpt lat="43.21747" lon="5.44915">
        <ele>204.1</ele>
        <time>2013-10-09T12:20:29Z</time>
      </trkpt>
      <trkpt lat="43.21751" lon="5.44912">
        <ele>203.8</ele>
        <time>2013-10-09T12:20:33Z</time>
      </trkpt>
      <trkpt lat="43.21754" lon="5.44912">
        <ele>203.6</ele>
        <time>2013-10-09T12:20:36Z</time>
      </trkpt>
      <trkpt lat="43.21758" lon="5.44912">
        <ele>203.8</ele>
        <time>2013-10-09T12:20:39Z</time>
      </trkpt>
      <trkpt lat="43.21762" lon="5.44912">
        <ele>204.1</ele>
        <time>2013-10-09T12:20:42Z</time>
      </trkpt>
      <trkpt lat="43.21765" lon="5.44911">
        <ele>204.3</ele>
        <time>2013-10-09T12:20:45Z</time>
      </trkpt>
      <trkpt lat="43.2177" lon="5.44911">
        <ele>204.8</ele>
        <time>2013-10-09T12:20:48Z</time>
      </trkpt>
      <trkpt lat="43.21774" lon="5.44912">
        <ele>204.6</ele>
        <time>2013-10-09T12:20:52Z</time>
      </trkpt>
      <trkpt lat="43.21778" lon="5.44912">
        <ele>205</ele>
        <time>2013-10-09T12:20:55Z</time>
      </trkpt>
      <trkpt lat="43.21782" lon="5.44911">
        <ele>204.6</ele>
        <time>2013-10-09T12:20:59Z</time>
      </trkpt>
      <trkpt lat="43.21783" lon="5.44911">
        <ele>204.6</ele>
        <time>2013-10-09T12:21:00Z</time>
      </trkpt>
      <trkpt lat="43.2179" lon="5.44912">
        <ele>204.8</ele>
        <time>2013-10-09T12:21:07Z</time>
      </trkpt>
      <trkpt lat="43.21795" lon="5.44912">
        <ele>204.3</ele>
        <time>2013-10-09T12:21:12Z</time>
      </trkpt>
      <trkpt lat="43.21798" lon="5.44912">
        <ele>204.3</ele>
        <time>2013-10-09T12:21:15Z</time>
      </trkpt>
      <trkpt lat="43.21802" lon="5.44908">
        <ele>204.1</ele>
        <time>2013-10-09T12:21:19Z</time>
      </trkpt>
      <trkpt lat="43.21804" lon="5.44905">
        <ele>204.5</ele>
        <time>2013-10-09T12:21:22Z</time>
      </trkpt>
      <trkpt lat="43.21806" lon="5.449">
        <ele>204.1</ele>
        <time>2013-10-09T12:21:26Z</time>
      </trkpt>
      <trkpt lat="43.21805" lon="5.44894">
        <ele>201.8</ele>
        <time>2013-10-09T12:21:31Z</time>
      </trkpt>
      <trkpt lat="43.21805" lon="5.44888">
        <ele>200.8</ele>
        <time>2013-10-09T12:21:35Z</time>
      </trkpt>
      <trkpt lat="43.21807" lon="5.44883">
        <ele>200.1</ele>
        <time>2013-10-09T12:21:39Z</time>
      </trkpt>
      <trkpt lat="43.21809" lon="5.44877">
        <ele>199.5</ele>
        <time>2013-10-09T12:21:43Z</time>
      </trkpt>
      <trkpt lat="43.2181" lon="5.44874">
        <ele>200.1</ele>
        <time>2013-10-09T12:21:45Z</time>
      </trkpt>
      <trkpt lat="43.21812" lon="5.44868">
        <ele>201.3</ele>
        <time>2013-10-09T12:21:48Z</time>
      </trkpt>
      <trkpt lat="43.21814" lon="5.44864">
        <ele>202.3</ele>
        <time>2013-10-09T12:21:51Z</time>
      </trkpt>
      <trkpt lat="43.21817" lon="5.44861">
        <ele>202.8</ele>
        <time>2013-10-09T12:21:54Z</time>
      </trkpt>
      <trkpt lat="43.21821" lon="5.44858">
        <ele>203.3</ele>
        <time>2013-10-09T12:21:58Z</time>
      </trkpt>
      <trkpt lat="43.21824" lon="5.44855">
        <ele>203.3</ele>
        <time>2013-10-09T12:22:02Z</time>
      </trkpt>
      <trkpt lat="43.21826" lon="5.44855">
        <ele>203.3</ele>
        <time>2013-10-09T12:22:03Z</time>
      </trkpt>
      <trkpt lat="43.21832" lon="5.44854">
        <ele>203.5</ele>
        <time>2013-10-09T12:22:09Z</time>
      </trkpt>
      <trkpt lat="43.21836" lon="5.44854">
        <ele>204.1</ele>
        <time>2013-10-09T12:22:12Z</time>
      </trkpt>
      <trkpt lat="43.21841" lon="5.44855">
        <ele>204.8</ele>
        <time>2013-10-09T12:22:15Z</time>
      </trkpt>
      <trkpt lat="43.21844" lon="5.44855">
        <ele>205.1</ele>
        <time>2013-10-09T12:22:18Z</time>
      </trkpt>
      <trkpt lat="43.21848" lon="5.44855">
        <ele>206.1</ele>
        <time>2013-10-09T12:22:21Z</time>
      </trkpt>
      <trkpt lat="43.21852" lon="5.44855">
        <ele>206.8</ele>
        <time>2013-10-09T12:22:24Z</time>
      </trkpt>
      <trkpt lat="43.21856" lon="5.44855">
        <ele>207.6</ele>
        <time>2013-10-09T12:22:27Z</time>
      </trkpt>
      <trkpt lat="43.2186" lon="5.44855">
        <ele>208.1</ele>
        <time>2013-10-09T12:22:31Z</time>
      </trkpt>
      <trkpt lat="43.21864" lon="5.44855">
        <ele>208.8</ele>
        <time>2013-10-09T12:22:35Z</time>
      </trkpt>
      <trkpt lat="43.21868" lon="5.44854">
        <ele>209.6</ele>
        <time>2013-10-09T12:22:39Z</time>
      </trkpt>
      <trkpt lat="43.21872" lon="5.44851">
        <ele>210.3</ele>
        <time>2013-10-09T12:22:46Z</time>
      </trkpt>
      <trkpt lat="43.21876" lon="5.44851">
        <ele>209.3</ele>
        <time>2013-10-09T12:23:46Z</time>
      </trkpt>
      <trkpt lat="43.21876" lon="5.4485">
        <ele>209.3</ele>
        <time>2013-10-09T12:23:47Z</time>
      </trkpt>
      <trkpt lat="43.21876" lon="5.44854">
        <ele>208.6</ele>
        <time>2013-10-09T12:24:15Z</time>
      </trkpt>
      <trkpt lat="43.21876" lon="5.44849">
        <ele>212.3</ele>
        <time>2013-10-09T12:24:29Z</time>
      </trkpt>
      <trkpt lat="43.21877" lon="5.44845">
        <ele>211.1</ele>
        <time>2013-10-09T12:24:32Z</time>
      </trkpt>
      <trkpt lat="43.21878" lon="5.44839">
        <ele>211.3</ele>
        <time>2013-10-09T12:24:35Z</time>
      </trkpt>
      <trkpt lat="43.21879" lon="5.44834">
        <ele>209.8</ele>
        <time>2013-10-09T12:24:38Z</time>
      </trkpt>
      <trkpt lat="43.2188" lon="5.44829">
        <ele>209.1</ele>
        <time>2013-10-09T12:24:41Z</time>
      </trkpt>
      <trkpt lat="43.2188" lon="5.44825">
        <ele>208.3</ele>
        <time>2013-10-09T12:24:44Z</time>
      </trkpt>
      <trkpt lat="43.2188" lon="5.4482">
        <ele>210.5</ele>
        <time>2013-10-09T12:24:46Z</time>
      </trkpt>
      <trkpt lat="43.2188" lon="5.44815">
        <ele>211.8</ele>
        <time>2013-10-09T12:24:49Z</time>
      </trkpt>
      <trkpt lat="43.2188" lon="5.44813">
        <ele>211.8</ele>
        <time>2013-10-09T12:24:50Z</time>
      </trkpt>
      <trkpt lat="43.21876" lon="5.44804">
        <ele>209.8</ele>
        <time>2013-10-09T12:24:57Z</time>
      </trkpt>
      <trkpt lat="43.21876" lon="5.44799">
        <ele>210.3</ele>
        <time>2013-10-09T12:25:00Z</time>
      </trkpt>
      <trkpt lat="43.21876" lon="5.44794">
        <ele>208.8</ele>
        <time>2013-10-09T12:25:04Z</time>
      </trkpt>
      <trkpt lat="43.21877" lon="5.4479">
        <ele>208</ele>
        <time>2013-10-09T12:25:07Z</time>
      </trkpt>
      <trkpt lat="43.21877" lon="5.44786">
        <ele>209.3</ele>
        <time>2013-10-09T12:25:09Z</time>
      </trkpt>
      <trkpt lat="43.21879" lon="5.4478">
        <ele>210.3</ele>
        <time>2013-10-09T12:25:12Z</time>
      </trkpt>
      <trkpt lat="43.2188" lon="5.44776">
        <ele>210.1</ele>
        <time>2013-10-09T12:25:15Z</time>
      </trkpt>
      <trkpt lat="43.21881" lon="5.44771">
        <ele>209.6</ele>
        <time>2013-10-09T12:25:18Z</time>
      </trkpt>
      <trkpt lat="43.21882" lon="5.44766">
        <ele>209.3</ele>
        <time>2013-10-09T12:25:21Z</time>
      </trkpt>
      <trkpt lat="43.21884" lon="5.44761">
        <ele>208.6</ele>
        <time>2013-10-09T12:25:25Z</time>
      </trkpt>
      <trkpt lat="43.21885" lon="5.44756">
        <ele>207.5</ele>
        <time>2013-10-09T12:25:29Z</time>
      </trkpt>
      <trkpt lat="43.21886" lon="5.44751">
        <ele>206</ele>
        <time>2013-10-09T12:25:34Z</time>
      </trkpt>
      <trkpt lat="43.21885" lon="5.44745">
        <ele>204.8</ele>
        <time>2013-10-09T12:25:40Z</time>
      </trkpt>
      <trkpt lat="43.21884" lon="5.4474">
        <ele>203.8</ele>
        <time>2013-10-09T12:25:45Z</time>
      </trkpt>
      <trkpt lat="43.21883" lon="5.44734">
        <ele>202.8</ele>
        <time>2013-10-09T12:25:50Z</time>
      </trkpt>
      <trkpt lat="43.21883" lon="5.44733">
        <ele>202.6</ele>
        <time>2013-10-09T12:25:51Z</time>
      </trkpt>
      <trkpt lat="43.21885" lon="5.44723">
        <ele>209.6</ele>
        <time>2013-10-09T12:26:28Z</time>
      </trkpt>
      <trkpt lat="43.21882" lon="5.44718">
        <ele>214</ele>
        <time>2013-10-09T12:27:32Z</time>
      </trkpt>
      <trkpt lat="43.21882" lon="5.44717">
        <ele>214.1</ele>
        <time>2013-10-09T12:27:33Z</time>
      </trkpt>
      <trkpt lat="43.21876" lon="5.4471">
        <ele>213.6</ele>
        <time>2013-10-09T12:30:06Z</time>
      </trkpt>
      <trkpt lat="43.21876" lon="5.44709">
        <ele>213.3</ele>
        <time>2013-10-09T12:30:07Z</time>
      </trkpt>
      <trkpt lat="43.21876" lon="5.44699">
        <ele>211.5</ele>
        <time>2013-10-09T12:30:19Z</time>
      </trkpt>
      <trkpt lat="43.21876" lon="5.44694">
        <ele>213</ele>
        <time>2013-10-09T12:30:23Z</time>
      </trkpt>
      <trkpt lat="43.21877" lon="5.44689">
        <ele>213.8</ele>
        <time>2013-10-09T12:30:27Z</time>
      </trkpt>
      <trkpt lat="43.21879" lon="5.44684">
        <ele>214.3</ele>
        <time>2013-10-09T12:30:31Z</time>
      </trkpt>
      <trkpt lat="43.2188" lon="5.44679">
        <ele>212.8</ele>
        <time>2013-10-09T12:30:36Z</time>
      </trkpt>
      <trkpt lat="43.21881" lon="5.44674">
        <ele>211.8</ele>
        <time>2013-10-09T12:30:41Z</time>
      </trkpt>
      <trkpt lat="43.21882" lon="5.44668">
        <ele>211.1</ele>
        <time>2013-10-09T12:30:46Z</time>
      </trkpt>
      <trkpt lat="43.21883" lon="5.44663">
        <ele>210.3</ele>
        <time>2013-10-09T12:30:51Z</time>
      </trkpt>
      <trkpt lat="43.21886" lon="5.44659">
        <ele>207.5</ele>
        <time>2013-10-09T12:30:57Z</time>
      </trkpt>
      <trkpt lat="43.21887" lon="5.44655">
        <ele>205.3</ele>
        <time>2013-10-09T12:31:02Z</time>
      </trkpt>
      <trkpt lat="43.21888" lon="5.4465">
        <ele>206.3</ele>
        <time>2013-10-09T12:31:05Z</time>
      </trkpt>
      <trkpt lat="43.2189" lon="5.44645">
        <ele>206.5</ele>
        <time>2013-10-09T12:31:09Z</time>
      </trkpt>
      <trkpt lat="43.2189" lon="5.44644">
        <ele>206.1</ele>
        <time>2013-10-09T12:31:10Z</time>
      </trkpt>
      <trkpt lat="43.21891" lon="5.44636">
        <ele>204.5</ele>
        <time>2013-10-09T12:31:17Z</time>
      </trkpt>
      <trkpt lat="43.21892" lon="5.44631">
        <ele>204.8</ele>
        <time>2013-10-09T12:31:20Z</time>
      </trkpt>
      <trkpt lat="43.21893" lon="5.44626">
        <ele>206</ele>
        <time>2013-10-09T12:31:23Z</time>
      </trkpt>
      <trkpt lat="43.21894" lon="5.4462">
        <ele>206.5</ele>
        <time>2013-10-09T12:31:27Z</time>
      </trkpt>
      <trkpt lat="43.21896" lon="5.44616">
        <ele>205.6</ele>
        <time>2013-10-09T12:31:31Z</time>
      </trkpt>
      <trkpt lat="43.21899" lon="5.44612">
        <ele>205</ele>
        <time>2013-10-09T12:31:35Z</time>
      </trkpt>
      <trkpt lat="43.21901" lon="5.44609">
        <ele>204.6</ele>
        <time>2013-10-09T12:31:38Z</time>
      </trkpt>
      <trkpt lat="43.21903" lon="5.44604">
        <ele>203.8</ele>
        <time>2013-10-09T12:31:43Z</time>
      </trkpt>
      <trkpt lat="43.21906" lon="5.44599">
        <ele>204</ele>
        <time>2013-10-09T12:31:47Z</time>
      </trkpt>
      <trkpt lat="43.21907" lon="5.44594">
        <ele>204.3</ele>
        <time>2013-10-09T12:31:50Z</time>
      </trkpt>
      <trkpt lat="43.2191" lon="5.44591">
        <ele>203</ele>
        <time>2013-10-09T12:31:54Z</time>
      </trkpt>
      <trkpt lat="43.21913" lon="5.44587">
        <ele>203.1</ele>
        <time>2013-10-09T12:31:57Z</time>
      </trkpt>
      <trkpt lat="43.21915" lon="5.44583">
        <ele>203</ele>
        <time>2013-10-09T12:32:00Z</time>
      </trkpt>
      <trkpt lat="43.21916" lon="5.4458">
        <ele>203.6</ele>
        <time>2013-10-09T12:32:02Z</time>
      </trkpt>
      <trkpt lat="43.21919" lon="5.44579">
        <ele>204.1</ele>
        <time>2013-10-09T12:32:03Z</time>
      </trkpt>
      <trkpt lat="43.2192" lon="5.44574">
        <ele>205.3</ele>
        <time>2013-10-09T12:32:06Z</time>
      </trkpt>
      <trkpt lat="43.21922" lon="5.44569">
        <ele>206.1</ele>
        <time>2013-10-09T12:32:10Z</time>
      </trkpt>
      <trkpt lat="43.21922" lon="5.44568">
        <ele>205.6</ele>
        <time>2013-10-09T12:32:11Z</time>
      </trkpt>
      <trkpt lat="43.21926" lon="5.44559">
        <ele>205.1</ele>
        <time>2013-10-09T12:32:18Z</time>
      </trkpt>
      <trkpt lat="43.21928" lon="5.44554">
        <ele>204.1</ele>
        <time>2013-10-09T12:32:22Z</time>
      </trkpt>
      <trkpt lat="43.21928" lon="5.44548">
        <ele>203.3</ele>
        <time>2013-10-09T12:32:26Z</time>
      </trkpt>
      <trkpt lat="43.21927" lon="5.44543">
        <ele>200.5</ele>
        <time>2013-10-09T12:32:31Z</time>
      </trkpt>
      <trkpt lat="43.21927" lon="5.44538">
        <ele>197.3</ele>
        <time>2013-10-09T12:32:36Z</time>
      </trkpt>
      <trkpt lat="43.21926" lon="5.44534">
        <ele>198.6</ele>
        <time>2013-10-09T12:32:38Z</time>
      </trkpt>
      <trkpt lat="43.21924" lon="5.4453">
        <ele>198.1</ele>
        <time>2013-10-09T12:32:41Z</time>
      </trkpt>
      <trkpt lat="43.21923" lon="5.44524">
        <ele>194.6</ele>
        <time>2013-10-09T12:32:46Z</time>
      </trkpt>
      <trkpt lat="43.21922" lon="5.44518">
        <ele>195.1</ele>
        <time>2013-10-09T12:32:50Z</time>
      </trkpt>
      <trkpt lat="43.21921" lon="5.44513">
        <ele>194.6</ele>
        <time>2013-10-09T12:32:53Z</time>
      </trkpt>
      <trkpt lat="43.21921" lon="5.44508">
        <ele>196.3</ele>
        <time>2013-10-09T12:32:55Z</time>
      </trkpt>
      <trkpt lat="43.21922" lon="5.44503">
        <ele>195.3</ele>
        <time>2013-10-09T12:32:59Z</time>
      </trkpt>
      <trkpt lat="43.21922" lon="5.44498">
        <ele>193.1</ele>
        <time>2013-10-09T12:33:03Z</time>
      </trkpt>
      <trkpt lat="43.21923" lon="5.44493">
        <ele>190.5</ele>
        <time>2013-10-09T12:33:07Z</time>
      </trkpt>
      <trkpt lat="43.21924" lon="5.44489">
        <ele>191</ele>
        <time>2013-10-09T12:33:09Z</time>
      </trkpt>
      <trkpt lat="43.21924" lon="5.44483">
        <ele>192.5</ele>
        <time>2013-10-09T12:33:11Z</time>
      </trkpt>
      <trkpt lat="43.21923" lon="5.44481">
        <ele>193</ele>
        <time>2013-10-09T12:33:12Z</time>
      </trkpt>
      <trkpt lat="43.21924" lon="5.44473">
        <ele>194.5</ele>
        <time>2013-10-09T12:33:17Z</time>
      </trkpt>
      <trkpt lat="43.21926" lon="5.44468">
        <ele>192.6</ele>
        <time>2013-10-09T12:33:21Z</time>
      </trkpt>
      <trkpt lat="43.21928" lon="5.44463">
        <ele>190.1</ele>
        <time>2013-10-09T12:33:26Z</time>
      </trkpt>
      <trkpt lat="43.21929" lon="5.4446">
        <ele>190.5</ele>
        <time>2013-10-09T12:33:28Z</time>
      </trkpt>
      <trkpt lat="43.2193" lon="5.44455">
        <ele>192.1</ele>
        <time>2013-10-09T12:33:30Z</time>
      </trkpt>
      <trkpt lat="43.21931" lon="5.44451">
        <ele>193</ele>
        <time>2013-10-09T12:33:32Z</time>
      </trkpt>
      <trkpt lat="43.21932" lon="5.44447">
        <ele>195</ele>
        <time>2013-10-09T12:33:34Z</time>
      </trkpt>
      <trkpt lat="43.21933" lon="5.44441">
        <ele>196.1</ele>
        <time>2013-10-09T12:33:37Z</time>
      </trkpt>
      <trkpt lat="43.21935" lon="5.44435">
        <ele>195.8</ele>
        <time>2013-10-09T12:33:41Z</time>
      </trkpt>
      <trkpt lat="43.21936" lon="5.4443">
        <ele>195.6</ele>
        <time>2013-10-09T12:33:44Z</time>
      </trkpt>
      <trkpt lat="43.21938" lon="5.44425">
        <ele>195.3</ele>
        <time>2013-10-09T12:33:48Z</time>
      </trkpt>
      <trkpt lat="43.2194" lon="5.4442">
        <ele>194</ele>
        <time>2013-10-09T12:33:52Z</time>
      </trkpt>
      <trkpt lat="43.21943" lon="5.44415">
        <ele>193.1</ele>
        <time>2013-10-09T12:33:56Z</time>
      </trkpt>
      <trkpt lat="43.21945" lon="5.44411">
        <ele>193.3</ele>
        <time>2013-10-09T12:33:59Z</time>
      </trkpt>
      <trkpt lat="43.21948" lon="5.44408">
        <ele>192.8</ele>
        <time>2013-10-09T12:34:02Z</time>
      </trkpt>
      <trkpt lat="43.21951" lon="5.44404">
        <ele>192.6</ele>
        <time>2013-10-09T12:34:05Z</time>
      </trkpt>
      <trkpt lat="43.21953" lon="5.444">
        <ele>192.1</ele>
        <time>2013-10-09T12:34:09Z</time>
      </trkpt>
      <trkpt lat="43.21956" lon="5.44396">
        <ele>191.6</ele>
        <time>2013-10-09T12:34:12Z</time>
      </trkpt>
      <trkpt lat="43.21957" lon="5.44395">
        <ele>191.5</ele>
        <time>2013-10-09T12:34:13Z</time>
      </trkpt>
      <trkpt lat="43.21963" lon="5.44389">
        <ele>190.1</ele>
        <time>2013-10-09T12:34:18Z</time>
      </trkpt>
      <trkpt lat="43.21965" lon="5.44384">
        <ele>189.3</ele>
        <time>2013-10-09T12:34:22Z</time>
      </trkpt>
      <trkpt lat="43.21967" lon="5.44379">
        <ele>189.8</ele>
        <time>2013-10-09T12:34:26Z</time>
      </trkpt>
      <trkpt lat="43.21968" lon="5.44374">
        <ele>190.3</ele>
        <time>2013-10-09T12:34:29Z</time>
      </trkpt>
      <trkpt lat="43.2197" lon="5.44369">
        <ele>191.1</ele>
        <time>2013-10-09T12:34:33Z</time>
      </trkpt>
      <trkpt lat="43.21973" lon="5.44365">
        <ele>190.6</ele>
        <time>2013-10-09T12:34:36Z</time>
      </trkpt>
      <trkpt lat="43.21975" lon="5.44361">
        <ele>190.3</ele>
        <time>2013-10-09T12:34:39Z</time>
      </trkpt>
      <trkpt lat="43.21977" lon="5.44358">
        <ele>189.3</ele>
        <time>2013-10-09T12:34:42Z</time>
      </trkpt>
      <trkpt lat="43.2198" lon="5.44354">
        <ele>188.1</ele>
        <time>2013-10-09T12:34:45Z</time>
      </trkpt>
      <trkpt lat="43.21981" lon="5.44349">
        <ele>189.1</ele>
        <time>2013-10-09T12:34:48Z</time>
      </trkpt>
      <trkpt lat="43.21983" lon="5.44345">
        <ele>189.1</ele>
        <time>2013-10-09T12:34:51Z</time>
      </trkpt>
      <trkpt lat="43.21986" lon="5.44343">
        <ele>188.3</ele>
        <time>2013-10-09T12:34:53Z</time>
      </trkpt>
      <trkpt lat="43.21989" lon="5.4434">
        <ele>187.6</ele>
        <time>2013-10-09T12:34:56Z</time>
      </trkpt>
      <trkpt lat="43.21992" lon="5.44338">
        <ele>187.8</ele>
        <time>2013-10-09T12:34:58Z</time>
      </trkpt>
      <trkpt lat="43.21994" lon="5.44333">
        <ele>188.6</ele>
        <time>2013-10-09T12:35:01Z</time>
      </trkpt>
      <trkpt lat="43.21995" lon="5.44327">
        <ele>189.6</ele>
        <time>2013-10-09T12:35:04Z</time>
      </trkpt>
      <trkpt lat="43.21997" lon="5.44323">
        <ele>190.1</ele>
        <time>2013-10-09T12:35:07Z</time>
      </trkpt>
      <trkpt lat="43.22" lon="5.44319">
        <ele>190.3</ele>
        <time>2013-10-09T12:35:10Z</time>
      </trkpt>
      <trkpt lat="43.22002" lon="5.44314">
        <ele>190.1</ele>
        <time>2013-10-09T12:35:14Z</time>
      </trkpt>
      <trkpt lat="43.22003" lon="5.44314">
        <ele>190.1</ele>
        <time>2013-10-09T12:35:15Z</time>
      </trkpt>
      <trkpt lat="43.22006" lon="5.44305">
        <ele>189.5</ele>
        <time>2013-10-09T12:35:23Z</time>
      </trkpt>
      <trkpt lat="43.22008" lon="5.443">
        <ele>188.8</ele>
        <time>2013-10-09T12:35:27Z</time>
      </trkpt>
      <trkpt lat="43.22009" lon="5.44295">
        <ele>188</ele>
        <time>2013-10-09T12:35:31Z</time>
      </trkpt>
      <trkpt lat="43.2201" lon="5.4429">
        <ele>188.1</ele>
        <time>2013-10-09T12:35:34Z</time>
      </trkpt>
      <trkpt lat="43.22012" lon="5.44285">
        <ele>188.6</ele>
        <time>2013-10-09T12:35:38Z</time>
      </trkpt>
      <trkpt lat="43.22015" lon="5.44281">
        <ele>189</ele>
        <time>2013-10-09T12:35:41Z</time>
      </trkpt>
      <trkpt lat="43.22019" lon="5.44278">
        <ele>189.1</ele>
        <time>2013-10-09T12:35:44Z</time>
      </trkpt>
      <trkpt lat="43.2202" lon="5.44273">
        <ele>188.8</ele>
        <time>2013-10-09T12:35:47Z</time>
      </trkpt>
      <trkpt lat="43.22021" lon="5.44268">
        <ele>187.8</ele>
        <time>2013-10-09T12:35:51Z</time>
      </trkpt>
      <trkpt lat="43.22022" lon="5.44263">
        <ele>188.1</ele>
        <time>2013-10-09T12:35:54Z</time>
      </trkpt>
      <trkpt lat="43.22024" lon="5.44261">
        <ele>188.3</ele>
        <time>2013-10-09T12:35:56Z</time>
      </trkpt>
      <trkpt lat="43.22028" lon="5.44258">
        <ele>188.1</ele>
        <time>2013-10-09T12:35:59Z</time>
      </trkpt>
      <trkpt lat="43.2203" lon="5.44255">
        <ele>188.5</ele>
        <time>2013-10-09T12:36:01Z</time>
      </trkpt>
      <trkpt lat="43.22033" lon="5.44252">
        <ele>189</ele>
        <time>2013-10-09T12:36:03Z</time>
      </trkpt>
      <trkpt lat="43.22034" lon="5.44249">
        <ele>189.6</ele>
        <time>2013-10-09T12:36:05Z</time>
      </trkpt>
      <trkpt lat="43.22036" lon="5.44244">
        <ele>190.3</ele>
        <time>2013-10-09T12:36:08Z</time>
      </trkpt>
      <trkpt lat="43.22037" lon="5.44238">
        <ele>191.3</ele>
        <time>2013-10-09T12:36:11Z</time>
      </trkpt>
      <trkpt lat="43.22038" lon="5.44233">
        <ele>191.8</ele>
        <time>2013-10-09T12:36:14Z</time>
      </trkpt>
      <trkpt lat="43.22039" lon="5.44228">
        <ele>191.6</ele>
        <time>2013-10-09T12:36:18Z</time>
      </trkpt>
      <trkpt lat="43.22041" lon="5.44226">
        <ele>191.8</ele>
        <time>2013-10-09T12:36:19Z</time>
      </trkpt>
      <trkpt lat="43.22043" lon="5.44218">
        <ele>188.1</ele>
        <time>2013-10-09T12:36:26Z</time>
      </trkpt>
      <trkpt lat="43.22045" lon="5.44212">
        <ele>186.3</ele>
        <time>2013-10-09T12:36:31Z</time>
      </trkpt>
      <trkpt lat="43.22046" lon="5.44208">
        <ele>186.6</ele>
        <time>2013-10-09T12:36:34Z</time>
      </trkpt>
      <trkpt lat="43.22046" lon="5.44204">
        <ele>187</ele>
        <time>2013-10-09T12:36:36Z</time>
      </trkpt>
      <trkpt lat="43.22047" lon="5.44199">
        <ele>186.3</ele>
        <time>2013-10-09T12:36:39Z</time>
      </trkpt>
      <trkpt lat="43.22048" lon="5.44193">
        <ele>186.1</ele>
        <time>2013-10-09T12:36:42Z</time>
      </trkpt>
      <trkpt lat="43.22049" lon="5.44188">
        <ele>185.1</ele>
        <time>2013-10-09T12:36:45Z</time>
      </trkpt>
      <trkpt lat="43.22051" lon="5.44184">
        <ele>181.6</ele>
        <time>2013-10-09T12:36:50Z</time>
      </trkpt>
      <trkpt lat="43.22054" lon="5.44181">
        <ele>180</ele>
        <time>2013-10-09T12:36:53Z</time>
      </trkpt>
      <trkpt lat="43.22057" lon="5.44177">
        <ele>177.3</ele>
        <time>2013-10-09T12:36:57Z</time>
      </trkpt>
      <trkpt lat="43.22057" lon="5.44172">
        <ele>176.8</ele>
        <time>2013-10-09T12:37:00Z</time>
      </trkpt>
      <trkpt lat="43.22058" lon="5.44167">
        <ele>177</ele>
        <time>2013-10-09T12:37:03Z</time>
      </trkpt>
      <trkpt lat="43.22059" lon="5.44162">
        <ele>175.6</ele>
        <time>2013-10-09T12:37:07Z</time>
      </trkpt>
      <trkpt lat="43.22061" lon="5.44157">
        <ele>175</ele>
        <time>2013-10-09T12:37:10Z</time>
      </trkpt>
      <trkpt lat="43.22063" lon="5.44153">
        <ele>173.3</ele>
        <time>2013-10-09T12:37:13Z</time>
      </trkpt>
      <trkpt lat="43.22064" lon="5.44148">
        <ele>174</ele>
        <time>2013-10-09T12:37:15Z</time>
      </trkpt>
      <trkpt lat="43.22066" lon="5.44144">
        <ele>172.6</ele>
        <time>2013-10-09T12:37:18Z</time>
      </trkpt>
      <trkpt lat="43.22067" lon="5.44139">
        <ele>174.5</ele>
        <time>2013-10-09T12:37:20Z</time>
      </trkpt>
      <trkpt lat="43.22067" lon="5.44136">
        <ele>175.3</ele>
        <time>2013-10-09T12:37:21Z</time>
      </trkpt>
      <trkpt lat="43.2207" lon="5.44129">
        <ele>176.6</ele>
        <time>2013-10-09T12:37:25Z</time>
      </trkpt>
      <trkpt lat="43.22071" lon="5.44124">
        <ele>178</ele>
        <time>2013-10-09T12:37:28Z</time>
      </trkpt>
      <trkpt lat="43.22073" lon="5.44119">
        <ele>178.6</ele>
        <time>2013-10-09T12:37:31Z</time>
      </trkpt>
      <trkpt lat="43.22075" lon="5.44114">
        <ele>179.1</ele>
        <time>2013-10-09T12:37:34Z</time>
      </trkpt>
      <trkpt lat="43.22077" lon="5.4411">
        <ele>179</ele>
        <time>2013-10-09T12:37:37Z</time>
      </trkpt>
      <trkpt lat="43.22079" lon="5.44106">
        <ele>178.8</ele>
        <time>2013-10-09T12:37:40Z</time>
      </trkpt>
      <trkpt lat="43.22081" lon="5.44102">
        <ele>178.8</ele>
        <time>2013-10-09T12:37:43Z</time>
      </trkpt>
      <trkpt lat="43.22083" lon="5.44098">
        <ele>178.8</ele>
        <time>2013-10-09T12:37:46Z</time>
      </trkpt>
      <trkpt lat="43.22086" lon="5.44095">
        <ele>178.8</ele>
        <time>2013-10-09T12:37:49Z</time>
      </trkpt>
      <trkpt lat="43.22088" lon="5.44091">
        <ele>178.1</ele>
        <time>2013-10-09T12:37:53Z</time>
      </trkpt>
      <trkpt lat="43.22091" lon="5.44088">
        <ele>177.8</ele>
        <time>2013-10-09T12:37:56Z</time>
      </trkpt>
      <trkpt lat="43.22095" lon="5.44084">
        <ele>177.3</ele>
        <time>2013-10-09T12:38:00Z</time>
      </trkpt>
      <trkpt lat="43.22099" lon="5.44081">
        <ele>177.5</ele>
        <time>2013-10-09T12:38:03Z</time>
      </trkpt>
      <trkpt lat="43.22101" lon="5.44077">
        <ele>176.8</ele>
        <time>2013-10-09T12:38:07Z</time>
      </trkpt>
      <trkpt lat="43.22103" lon="5.44074">
        <ele>176</ele>
        <time>2013-10-09T12:38:11Z</time>
      </trkpt>
      <trkpt lat="43.22106" lon="5.4407">
        <ele>175.1</ele>
        <time>2013-10-09T12:38:15Z</time>
      </trkpt>
      <trkpt lat="43.22109" lon="5.44067">
        <ele>174.3</ele>
        <time>2013-10-09T12:38:19Z</time>
      </trkpt>
      <trkpt lat="43.22112" lon="5.44064">
        <ele>173.8</ele>
        <time>2013-10-09T12:38:23Z</time>
      </trkpt>
      <trkpt lat="43.22113" lon="5.44063">
        <ele>173.8</ele>
        <time>2013-10-09T12:38:24Z</time>
      </trkpt>
      <trkpt lat="43.22119" lon="5.4406">
        <ele>175.6</ele>
        <time>2013-10-09T12:38:27Z</time>
      </trkpt>
      <trkpt lat="43.22123" lon="5.44057">
        <ele>175</ele>
        <time>2013-10-09T12:38:31Z</time>
      </trkpt>
      <trkpt lat="43.22126" lon="5.44053">
        <ele>174.1</ele>
        <time>2013-10-09T12:38:35Z</time>
      </trkpt>
      <trkpt lat="43.22129" lon="5.4405">
        <ele>173.8</ele>
        <time>2013-10-09T12:38:38Z</time>
      </trkpt>
      <trkpt lat="43.22132" lon="5.44047">
        <ele>174.5</ele>
        <time>2013-10-09T12:38:40Z</time>
      </trkpt>
      <trkpt lat="43.22136" lon="5.44044">
        <ele>174.6</ele>
        <time>2013-10-09T12:38:43Z</time>
      </trkpt>
      <trkpt lat="43.22139" lon="5.44041">
        <ele>174.1</ele>
        <time>2013-10-09T12:38:46Z</time>
      </trkpt>
      <trkpt lat="43.22142" lon="5.44038">
        <ele>174.1</ele>
        <time>2013-10-09T12:38:49Z</time>
      </trkpt>
      <trkpt lat="43.22144" lon="5.44035">
        <ele>174.6</ele>
        <time>2013-10-09T12:38:52Z</time>
      </trkpt>
      <trkpt lat="43.22148" lon="5.44032">
        <ele>174</ele>
        <time>2013-10-09T12:38:56Z</time>
      </trkpt>
      <trkpt lat="43.22152" lon="5.4403">
        <ele>173.6</ele>
        <time>2013-10-09T12:38:59Z</time>
      </trkpt>
      <trkpt lat="43.22156" lon="5.44027">
        <ele>172.8</ele>
        <time>2013-10-09T12:39:03Z</time>
      </trkpt>
      <trkpt lat="43.22159" lon="5.44022">
        <ele>171.6</ele>
        <time>2013-10-09T12:39:08Z</time>
      </trkpt>
      <trkpt lat="43.22163" lon="5.4402">
        <ele>171.5</ele>
        <time>2013-10-09T12:39:12Z</time>
      </trkpt>
      <trkpt lat="43.22167" lon="5.44017">
        <ele>170.8</ele>
        <time>2013-10-09T12:39:17Z</time>
      </trkpt>
      <trkpt lat="43.22169" lon="5.44015">
        <ele>170</ele>
        <time>2013-10-09T12:39:20Z</time>
      </trkpt>
      <trkpt lat="43.22173" lon="5.44014">
        <ele>169.8</ele>
        <time>2013-10-09T12:39:23Z</time>
      </trkpt>
      <trkpt lat="43.22176" lon="5.44011">
        <ele>166.6</ele>
        <time>2013-10-09T12:39:30Z</time>
      </trkpt>
      <trkpt lat="43.22177" lon="5.4401">
        <ele>166.1</ele>
        <time>2013-10-09T12:39:31Z</time>
      </trkpt>
      <trkpt lat="43.22182" lon="5.4401">
        <ele>166.8</ele>
        <time>2013-10-09T12:39:33Z</time>
      </trkpt>
      <trkpt lat="43.22186" lon="5.44009">
        <ele>167.5</ele>
        <time>2013-10-09T12:39:34Z</time>
      </trkpt>
      <trkpt lat="43.22188" lon="5.44009">
        <ele>168.3</ele>
        <time>2013-10-09T12:39:35Z</time>
      </trkpt>
      <trkpt lat="43.22191" lon="5.44008">
        <ele>169.1</ele>
        <time>2013-10-09T12:39:36Z</time>
      </trkpt>
      <trkpt lat="43.22193" lon="5.44008">
        <ele>169.6</ele>
        <time>2013-10-09T12:39:37Z</time>
      </trkpt>
      <trkpt lat="43.22195" lon="5.44008">
        <ele>170.1</ele>
        <time>2013-10-09T12:39:38Z</time>
      </trkpt>
      <trkpt lat="43.22199" lon="5.44007">
        <ele>170.8</ele>
        <time>2013-10-09T12:39:40Z</time>
      </trkpt>
      <trkpt lat="43.22203" lon="5.44007">
        <ele>171</ele>
        <time>2013-10-09T12:39:42Z</time>
      </trkpt>
      <trkpt lat="43.22206" lon="5.44006">
        <ele>171.5</ele>
        <time>2013-10-09T12:39:44Z</time>
      </trkpt>
      <trkpt lat="43.2221" lon="5.44005">
        <ele>172.3</ele>
        <time>2013-10-09T12:39:46Z</time>
      </trkpt>
      <trkpt lat="43.22213" lon="5.44005">
        <ele>172.6</ele>
        <time>2013-10-09T12:39:48Z</time>
      </trkpt>
      <trkpt lat="43.22215" lon="5.44005">
        <ele>172.8</ele>
        <time>2013-10-09T12:39:49Z</time>
      </trkpt>
      <trkpt lat="43.22219" lon="5.44004">
        <ele>173.5</ele>
        <time>2013-10-09T12:39:51Z</time>
      </trkpt>
      <trkpt lat="43.22223" lon="5.44003">
        <ele>173.6</ele>
        <time>2013-10-09T12:39:54Z</time>
      </trkpt>
      <trkpt lat="43.22226" lon="5.44001">
        <ele>173.3</ele>
        <time>2013-10-09T12:39:58Z</time>
      </trkpt>
      <trkpt lat="43.22231" lon="5.43999">
        <ele>172.8</ele>
        <time>2013-10-09T12:40:02Z</time>
      </trkpt>
      <trkpt lat="43.22235" lon="5.43998">
        <ele>173.3</ele>
        <time>2013-10-09T12:40:05Z</time>
      </trkpt>
      <trkpt lat="43.22239" lon="5.43997">
        <ele>174.1</ele>
        <time>2013-10-09T12:40:08Z</time>
      </trkpt>
      <trkpt lat="43.22243" lon="5.43995">
        <ele>174</ele>
        <time>2013-10-09T12:40:13Z</time>
      </trkpt>
      <trkpt lat="43.22247" lon="5.43994">
        <ele>174.1</ele>
        <time>2013-10-09T12:40:16Z</time>
      </trkpt>
      <trkpt lat="43.22251" lon="5.43993">
        <ele>174</ele>
        <time>2013-10-09T12:40:19Z</time>
      </trkpt>
      <trkpt lat="43.22255" lon="5.43992">
        <ele>174.8</ele>
        <time>2013-10-09T12:40:22Z</time>
      </trkpt>
      <trkpt lat="43.22258" lon="5.4399">
        <ele>175</ele>
        <time>2013-10-09T12:40:25Z</time>
      </trkpt>
      <trkpt lat="43.22262" lon="5.43988">
        <ele>175.1</ele>
        <time>2013-10-09T12:40:28Z</time>
      </trkpt>
      <trkpt lat="43.22266" lon="5.43987">
        <ele>175.3</ele>
        <time>2013-10-09T12:40:31Z</time>
      </trkpt>
      <trkpt lat="43.22267" lon="5.43986">
        <ele>175.1</ele>
        <time>2013-10-09T12:40:32Z</time>
      </trkpt>
      <trkpt lat="43.22273" lon="5.43982">
        <ele>174.3</ele>
        <time>2013-10-09T12:40:39Z</time>
      </trkpt>
      <trkpt lat="43.22276" lon="5.43978">
        <ele>174.1</ele>
        <time>2013-10-09T12:40:43Z</time>
      </trkpt>
      <trkpt lat="43.22279" lon="5.43974">
        <ele>172</ele>
        <time>2013-10-09T12:40:48Z</time>
      </trkpt>
      <trkpt lat="43.22281" lon="5.43971">
        <ele>170.3</ele>
        <time>2013-10-09T12:40:51Z</time>
      </trkpt>
      <trkpt lat="43.22284" lon="5.43969">
        <ele>171</ele>
        <time>2013-10-09T12:40:53Z</time>
      </trkpt>
      <trkpt lat="43.22285" lon="5.43964">
        <ele>165.6</ele>
        <time>2013-10-09T12:40:59Z</time>
      </trkpt>
      <trkpt lat="43.22287" lon="5.43959">
        <ele>163.3</ele>
        <time>2013-10-09T12:41:04Z</time>
      </trkpt>
      <trkpt lat="43.2229" lon="5.43958">
        <ele>164</ele>
        <time>2013-10-09T12:41:05Z</time>
      </trkpt>
      <trkpt lat="43.22293" lon="5.43955">
        <ele>164.1</ele>
        <time>2013-10-09T12:41:09Z</time>
      </trkpt>
      <trkpt lat="43.22297" lon="5.43953">
        <ele>163.8</ele>
        <time>2013-10-09T12:41:12Z</time>
      </trkpt>
      <trkpt lat="43.22298" lon="5.43951">
        <ele>163.1</ele>
        <time>2013-10-09T12:41:14Z</time>
      </trkpt>
      <trkpt lat="43.22302" lon="5.4395">
        <ele>164.5</ele>
        <time>2013-10-09T12:41:16Z</time>
      </trkpt>
      <trkpt lat="43.22304" lon="5.43946">
        <ele>164</ele>
        <time>2013-10-09T12:41:19Z</time>
      </trkpt>
      <trkpt lat="43.22306" lon="5.43946">
        <ele>164.8</ele>
        <time>2013-10-09T12:41:20Z</time>
      </trkpt>
      <trkpt lat="43.22309" lon="5.43945">
        <ele>165.1</ele>
        <time>2013-10-09T12:41:21Z</time>
      </trkpt>
      <trkpt lat="43.22311" lon="5.43944">
        <ele>166</ele>
        <time>2013-10-09T12:41:22Z</time>
      </trkpt>
      <trkpt lat="43.22314" lon="5.43942">
        <ele>166.6</ele>
        <time>2013-10-09T12:41:23Z</time>
      </trkpt>
      <trkpt lat="43.22316" lon="5.43941">
        <ele>167.3</ele>
        <time>2013-10-09T12:41:24Z</time>
      </trkpt>
      <trkpt lat="43.2232" lon="5.43939">
        <ele>167.3</ele>
        <time>2013-10-09T12:41:26Z</time>
      </trkpt>
      <trkpt lat="43.22322" lon="5.43937">
        <ele>167.8</ele>
        <time>2013-10-09T12:41:28Z</time>
      </trkpt>
      <trkpt lat="43.22325" lon="5.43934">
        <ele>168.3</ele>
        <time>2013-10-09T12:41:30Z</time>
      </trkpt>
      <trkpt lat="43.22329" lon="5.43932">
        <ele>169.6</ele>
        <time>2013-10-09T12:41:32Z</time>
      </trkpt>
      <trkpt lat="43.22331" lon="5.43931">
        <ele>169.8</ele>
        <time>2013-10-09T12:41:33Z</time>
      </trkpt>
      <trkpt lat="43.22336" lon="5.43928">
        <ele>171.8</ele>
        <time>2013-10-09T12:41:36Z</time>
      </trkpt>
      <trkpt lat="43.22338" lon="5.43924">
        <ele>171.6</ele>
        <time>2013-10-09T12:41:39Z</time>
      </trkpt>
      <trkpt lat="43.22341" lon="5.43922">
        <ele>172.6</ele>
        <time>2013-10-09T12:41:41Z</time>
      </trkpt>
      <trkpt lat="43.22344" lon="5.43919">
        <ele>173.1</ele>
        <time>2013-10-09T12:41:44Z</time>
      </trkpt>
      <trkpt lat="43.22347" lon="5.43915">
        <ele>172.8</ele>
        <time>2013-10-09T12:41:47Z</time>
      </trkpt>
      <trkpt lat="43.2235" lon="5.43912">
        <ele>172.6</ele>
        <time>2013-10-09T12:41:50Z</time>
      </trkpt>
      <trkpt lat="43.22352" lon="5.43908">
        <ele>172.3</ele>
        <time>2013-10-09T12:41:53Z</time>
      </trkpt>
      <trkpt lat="43.22355" lon="5.43904">
        <ele>171.1</ele>
        <time>2013-10-09T12:41:57Z</time>
      </trkpt>
      <trkpt lat="43.22357" lon="5.43899">
        <ele>170.3</ele>
        <time>2013-10-09T12:42:01Z</time>
      </trkpt>
      <trkpt lat="43.22359" lon="5.43894">
        <ele>171</ele>
        <time>2013-10-09T12:42:05Z</time>
      </trkpt>
      <trkpt lat="43.22362" lon="5.43891">
        <ele>171.5</ele>
        <time>2013-10-09T12:42:08Z</time>
      </trkpt>
      <trkpt lat="43.22365" lon="5.43887">
        <ele>171.1</ele>
        <time>2013-10-09T12:42:12Z</time>
      </trkpt>
      <trkpt lat="43.22368" lon="5.43884">
        <ele>170.1</ele>
        <time>2013-10-09T12:42:16Z</time>
      </trkpt>
      <trkpt lat="43.22371" lon="5.43881">
        <ele>169.1</ele>
        <time>2013-10-09T12:42:20Z</time>
      </trkpt>
      <trkpt lat="43.22373" lon="5.43878">
        <ele>168.8</ele>
        <time>2013-10-09T12:42:23Z</time>
      </trkpt>
      <trkpt lat="43.22376" lon="5.43874">
        <ele>168.3</ele>
        <time>2013-10-09T12:42:27Z</time>
      </trkpt>
      <trkpt lat="43.2238" lon="5.43872">
        <ele>168.3</ele>
        <time>2013-10-09T12:42:30Z</time>
      </trkpt>
      <trkpt lat="43.22384" lon="5.43869">
        <ele>168.3</ele>
        <time>2013-10-09T12:42:34Z</time>
      </trkpt>
      <trkpt lat="43.22385" lon="5.43869">
        <ele>168.1</ele>
        <time>2013-10-09T12:42:35Z</time>
      </trkpt>
      <trkpt lat="43.22391" lon="5.43864">
        <ele>168</ele>
        <time>2013-10-09T12:42:41Z</time>
      </trkpt>
      <trkpt lat="43.22395" lon="5.43862">
        <ele>168.3</ele>
        <time>2013-10-09T12:42:44Z</time>
      </trkpt>
      <trkpt lat="43.22399" lon="5.4386">
        <ele>167.8</ele>
        <time>2013-10-09T12:42:47Z</time>
      </trkpt>
      <trkpt lat="43.22402" lon="5.43858">
        <ele>167.6</ele>
        <time>2013-10-09T12:42:51Z</time>
      </trkpt>
      <trkpt lat="43.22406" lon="5.43855">
        <ele>167.1</ele>
        <time>2013-10-09T12:42:55Z</time>
      </trkpt>
      <trkpt lat="43.2241" lon="5.43853">
        <ele>167.5</ele>
        <time>2013-10-09T12:42:58Z</time>
      </trkpt>
      <trkpt lat="43.22414" lon="5.43852">
        <ele>167.6</ele>
        <time>2013-10-09T12:43:01Z</time>
      </trkpt>
      <trkpt lat="43.22418" lon="5.4385">
        <ele>168</ele>
        <time>2013-10-09T12:43:06Z</time>
      </trkpt>
      <trkpt lat="43.22421" lon="5.43847">
        <ele>168</ele>
        <time>2013-10-09T12:43:10Z</time>
      </trkpt>
      <trkpt lat="43.22424" lon="5.43845">
        <ele>166.8</ele>
        <time>2013-10-09T12:43:14Z</time>
      </trkpt>
      <trkpt lat="43.22427" lon="5.43842">
        <ele>166.5</ele>
        <time>2013-10-09T12:43:17Z</time>
      </trkpt>
      <trkpt lat="43.2243" lon="5.43839">
        <ele>165.3</ele>
        <time>2013-10-09T12:43:21Z</time>
      </trkpt>
      <trkpt lat="43.22433" lon="5.43834">
        <ele>165.3</ele>
        <time>2013-10-09T12:43:26Z</time>
      </trkpt>
      <trkpt lat="43.22436" lon="5.43831">
        <ele>165.6</ele>
        <time>2013-10-09T12:43:30Z</time>
      </trkpt>
      <trkpt lat="43.2244" lon="5.4383">
        <ele>167</ele>
        <time>2013-10-09T12:43:31Z</time>
      </trkpt>
      <trkpt lat="43.22444" lon="5.43828">
        <ele>166.8</ele>
        <time>2013-10-09T12:43:34Z</time>
      </trkpt>
      <trkpt lat="43.22446" lon="5.43824">
        <ele>166.1</ele>
        <time>2013-10-09T12:43:38Z</time>
      </trkpt>
      <trkpt lat="43.22448" lon="5.43823">
        <ele>167.1</ele>
        <time>2013-10-09T12:43:39Z</time>
      </trkpt>
      <trkpt lat="43.22453" lon="5.4382">
        <ele>167.6</ele>
        <time>2013-10-09T12:43:44Z</time>
      </trkpt>
      <trkpt lat="43.22456" lon="5.43818">
        <ele>169</ele>
        <time>2013-10-09T12:43:47Z</time>
      </trkpt>
      <trkpt lat="43.2246" lon="5.43818">
        <ele>170.6</ele>
        <time>2013-10-09T12:43:50Z</time>
      </trkpt>
      <trkpt lat="43.22463" lon="5.43817">
        <ele>170.6</ele>
        <time>2013-10-09T12:43:53Z</time>
      </trkpt>
      <trkpt lat="43.22467" lon="5.43817">
        <ele>171.1</ele>
        <time>2013-10-09T12:43:56Z</time>
      </trkpt>
      <trkpt lat="43.22471" lon="5.43818">
        <ele>170</ele>
        <time>2013-10-09T12:44:00Z</time>
      </trkpt>
      <trkpt lat="43.22475" lon="5.43817">
        <ele>168.5</ele>
        <time>2013-10-09T12:44:04Z</time>
      </trkpt>
      <trkpt lat="43.22478" lon="5.43817">
        <ele>167.8</ele>
        <time>2013-10-09T12:44:07Z</time>
      </trkpt>
      <trkpt lat="43.22483" lon="5.43816">
        <ele>167.6</ele>
        <time>2013-10-09T12:44:10Z</time>
      </trkpt>
      <trkpt lat="43.22487" lon="5.43816">
        <ele>167</ele>
        <time>2013-10-09T12:44:15Z</time>
      </trkpt>
      <trkpt lat="43.2249" lon="5.43816">
        <ele>167</ele>
        <time>2013-10-09T12:44:18Z</time>
      </trkpt>
      <trkpt lat="43.22494" lon="5.43816">
        <ele>167.1</ele>
        <time>2013-10-09T12:44:21Z</time>
      </trkpt>
      <trkpt lat="43.22498" lon="5.43816">
        <ele>166.8</ele>
        <time>2013-10-09T12:44:24Z</time>
      </trkpt>
      <trkpt lat="43.22502" lon="5.43817">
        <ele>167</ele>
        <time>2013-10-09T12:44:27Z</time>
      </trkpt>
      <trkpt lat="43.22506" lon="5.43817">
        <ele>167.1</ele>
        <time>2013-10-09T12:44:30Z</time>
      </trkpt>
      <trkpt lat="43.2251" lon="5.43817">
        <ele>166.8</ele>
        <time>2013-10-09T12:44:33Z</time>
      </trkpt>
      <trkpt lat="43.22514" lon="5.43818">
        <ele>166.1</ele>
        <time>2013-10-09T12:44:37Z</time>
      </trkpt>
      <trkpt lat="43.22517" lon="5.43817">
        <ele>165.3</ele>
        <time>2013-10-09T12:44:41Z</time>
      </trkpt>
      <trkpt lat="43.22519" lon="5.43817">
        <ele>165.3</ele>
        <time>2013-10-09T12:44:42Z</time>
      </trkpt>
      <trkpt lat="43.22524" lon="5.43816">
        <ele>164.8</ele>
        <time>2013-10-09T12:44:47Z</time>
      </trkpt>
      <trkpt lat="43.22528" lon="5.43815">
        <ele>164</ele>
        <time>2013-10-09T12:44:51Z</time>
      </trkpt>
      <trkpt lat="43.22532" lon="5.43814">
        <ele>163.6</ele>
        <time>2013-10-09T12:44:54Z</time>
      </trkpt>
      <trkpt lat="43.22536" lon="5.43814">
        <ele>164.1</ele>
        <time>2013-10-09T12:44:57Z</time>
      </trkpt>
      <trkpt lat="43.2254" lon="5.43813">
        <ele>164.1</ele>
        <time>2013-10-09T12:45:00Z</time>
      </trkpt>
      <trkpt lat="43.22544" lon="5.43813">
        <ele>164.1</ele>
        <time>2013-10-09T12:45:03Z</time>
      </trkpt>
      <trkpt lat="43.22548" lon="5.43812">
        <ele>164.3</ele>
        <time>2013-10-09T12:45:06Z</time>
      </trkpt>
      <trkpt lat="43.22551" lon="5.43812">
        <ele>163.3</ele>
        <time>2013-10-09T12:45:10Z</time>
      </trkpt>
      <trkpt lat="43.22554" lon="5.43812">
        <ele>163.1</ele>
        <time>2013-10-09T12:45:12Z</time>
      </trkpt>
      <trkpt lat="43.22557" lon="5.43812">
        <ele>163.6</ele>
        <time>2013-10-09T12:45:14Z</time>
      </trkpt>
      <trkpt lat="43.22561" lon="5.43811">
        <ele>163.6</ele>
        <time>2013-10-09T12:45:17Z</time>
      </trkpt>
      <trkpt lat="43.22566" lon="5.43811">
        <ele>164.8</ele>
        <time>2013-10-09T12:45:19Z</time>
      </trkpt>
      <trkpt lat="43.22569" lon="5.43811">
        <ele>164.8</ele>
        <time>2013-10-09T12:45:22Z</time>
      </trkpt>
      <trkpt lat="43.22574" lon="5.43811">
        <ele>164.6</ele>
        <time>2013-10-09T12:45:27Z</time>
      </trkpt>
      <trkpt lat="43.22578" lon="5.4381">
        <ele>165</ele>
        <time>2013-10-09T12:45:30Z</time>
      </trkpt>
      <trkpt lat="43.22581" lon="5.4381">
        <ele>165.1</ele>
        <time>2013-10-09T12:45:34Z</time>
      </trkpt>
      <trkpt lat="43.22585" lon="5.4381">
        <ele>165.5</ele>
        <time>2013-10-09T12:45:37Z</time>
      </trkpt>
      <trkpt lat="43.22589" lon="5.4381">
        <ele>165.5</ele>
        <time>2013-10-09T12:45:42Z</time>
      </trkpt>
      <trkpt lat="43.22591" lon="5.4381">
        <ele>165.6</ele>
        <time>2013-10-09T12:45:43Z</time>
      </trkpt>
      <trkpt lat="43.22597" lon="5.43809">
        <ele>166.6</ele>
        <time>2013-10-09T12:45:47Z</time>
      </trkpt>
      <trkpt lat="43.226" lon="5.43808">
        <ele>167.3</ele>
        <time>2013-10-09T12:45:49Z</time>
      </trkpt>
      <trkpt lat="43.22604" lon="5.43807">
        <ele>167.6</ele>
        <time>2013-10-09T12:45:52Z</time>
      </trkpt>
      <trkpt lat="43.22608" lon="5.43806">
        <ele>167.6</ele>
        <time>2013-10-09T12:45:55Z</time>
      </trkpt>
      <trkpt lat="43.22613" lon="5.43806">
        <ele>167.8</ele>
        <time>2013-10-09T12:45:58Z</time>
      </trkpt>
      <trkpt lat="43.22617" lon="5.43804">
        <ele>167.8</ele>
        <time>2013-10-09T12:46:01Z</time>
      </trkpt>
      <trkpt lat="43.2262" lon="5.43802">
        <ele>167.5</ele>
        <time>2013-10-09T12:46:04Z</time>
      </trkpt>
      <trkpt lat="43.22624" lon="5.43801">
        <ele>167.3</ele>
        <time>2013-10-09T12:46:07Z</time>
      </trkpt>
      <trkpt lat="43.22628" lon="5.43798">
        <ele>165.6</ele>
        <time>2013-10-09T12:46:11Z</time>
      </trkpt>
      <trkpt lat="43.22632" lon="5.43796">
        <ele>164.5</ele>
        <time>2013-10-09T12:46:15Z</time>
      </trkpt>
      <trkpt lat="43.22635" lon="5.43793">
        <ele>163.3</ele>
        <time>2013-10-09T12:46:19Z</time>
      </trkpt>
      <trkpt lat="43.22639" lon="5.4379">
        <ele>163</ele>
        <time>2013-10-09T12:46:23Z</time>
      </trkpt>
      <trkpt lat="43.22643" lon="5.43788">
        <ele>162.5</ele>
        <time>2013-10-09T12:46:27Z</time>
      </trkpt>
      <trkpt lat="43.22646" lon="5.43786">
        <ele>162</ele>
        <time>2013-10-09T12:46:30Z</time>
      </trkpt>
      <trkpt lat="43.2265" lon="5.43784">
        <ele>161.5</ele>
        <time>2013-10-09T12:46:33Z</time>
      </trkpt>
      <trkpt lat="43.22653" lon="5.43782">
        <ele>161.1</ele>
        <time>2013-10-09T12:46:36Z</time>
      </trkpt>
      <trkpt lat="43.22657" lon="5.43778">
        <ele>160.6</ele>
        <time>2013-10-09T12:46:40Z</time>
      </trkpt>
      <trkpt lat="43.2266" lon="5.43775">
        <ele>160.1</ele>
        <time>2013-10-09T12:46:44Z</time>
      </trkpt>
      <trkpt lat="43.22661" lon="5.43775">
        <ele>160</ele>
        <time>2013-10-09T12:46:45Z</time>
      </trkpt>
      <trkpt lat="43.22667" lon="5.4377">
        <ele>159.8</ele>
        <time>2013-10-09T12:46:50Z</time>
      </trkpt>
      <trkpt lat="43.2267" lon="5.43767">
        <ele>159.3</ele>
        <time>2013-10-09T12:46:53Z</time>
      </trkpt>
      <trkpt lat="43.22673" lon="5.43765">
        <ele>159</ele>
        <time>2013-10-09T12:46:56Z</time>
      </trkpt>
      <trkpt lat="43.22676" lon="5.43763">
        <ele>158.6</ele>
        <time>2013-10-09T12:46:59Z</time>
      </trkpt>
      <trkpt lat="43.22679" lon="5.4376">
        <ele>158.6</ele>
        <time>2013-10-09T12:47:02Z</time>
      </trkpt>
      <trkpt lat="43.22682" lon="5.43758">
        <ele>158.6</ele>
        <time>2013-10-09T12:47:05Z</time>
      </trkpt>
      <trkpt lat="43.22685" lon="5.43755">
        <ele>158.6</ele>
        <time>2013-10-09T12:47:08Z</time>
      </trkpt>
      <trkpt lat="43.22688" lon="5.43753">
        <ele>158.6</ele>
        <time>2013-10-09T12:47:11Z</time>
      </trkpt>
      <trkpt lat="43.22692" lon="5.4375">
        <ele>158.6</ele>
        <time>2013-10-09T12:47:15Z</time>
      </trkpt>
      <trkpt lat="43.22695" lon="5.43748">
        <ele>158.6</ele>
        <time>2013-10-09T12:47:18Z</time>
      </trkpt>
      <trkpt lat="43.22699" lon="5.43745">
        <ele>158</ele>
        <time>2013-10-09T12:47:22Z</time>
      </trkpt>
      <trkpt lat="43.22702" lon="5.43742">
        <ele>157.3</ele>
        <time>2013-10-09T12:47:26Z</time>
      </trkpt>
      <trkpt lat="43.22706" lon="5.43739">
        <ele>157</ele>
        <time>2013-10-09T12:47:30Z</time>
      </trkpt>
      <trkpt lat="43.2271" lon="5.43737">
        <ele>157.1</ele>
        <time>2013-10-09T12:47:33Z</time>
      </trkpt>
      <trkpt lat="43.22714" lon="5.43735">
        <ele>156.8</ele>
        <time>2013-10-09T12:47:37Z</time>
      </trkpt>
      <trkpt lat="43.22718" lon="5.43733">
        <ele>156.6</ele>
        <time>2013-10-09T12:47:41Z</time>
      </trkpt>
      <trkpt lat="43.2272" lon="5.43732">
        <ele>156.6</ele>
        <time>2013-10-09T12:47:43Z</time>
      </trkpt>
      <trkpt lat="43.22723" lon="5.43731">
        <ele>156.6</ele>
        <time>2013-10-09T12:47:45Z</time>
      </trkpt>
      <trkpt lat="43.22725" lon="5.4373">
        <ele>156.5</ele>
        <time>2013-10-09T12:47:46Z</time>
      </trkpt>
      <trkpt lat="43.2273" lon="5.43729">
        <ele>156.8</ele>
        <time>2013-10-09T12:47:49Z</time>
      </trkpt>
      <trkpt lat="43.22733" lon="5.43727">
        <ele>157.1</ele>
        <time>2013-10-09T12:47:51Z</time>
      </trkpt>
      <trkpt lat="43.22737" lon="5.43726">
        <ele>157.1</ele>
        <time>2013-10-09T12:47:53Z</time>
      </trkpt>
      <trkpt lat="43.22741" lon="5.43726">
        <ele>157.5</ele>
        <time>2013-10-09T12:47:56Z</time>
      </trkpt>
      <trkpt lat="43.22745" lon="5.43725">
        <ele>157.6</ele>
        <time>2013-10-09T12:47:59Z</time>
      </trkpt>
      <trkpt lat="43.22749" lon="5.43723">
        <ele>157.8</ele>
        <time>2013-10-09T12:48:02Z</time>
      </trkpt>
      <trkpt lat="43.22753" lon="5.43723">
        <ele>158</ele>
        <time>2013-10-09T12:48:05Z</time>
      </trkpt>
      <trkpt lat="43.22756" lon="5.43723">
        <ele>158.1</ele>
        <time>2013-10-09T12:48:08Z</time>
      </trkpt>
      <trkpt lat="43.2276" lon="5.43722">
        <ele>157.8</ele>
        <time>2013-10-09T12:48:11Z</time>
      </trkpt>
      <trkpt lat="43.22763" lon="5.43721">
        <ele>157.5</ele>
        <time>2013-10-09T12:48:14Z</time>
      </trkpt>
      <trkpt lat="43.22767" lon="5.43721">
        <ele>157.1</ele>
        <time>2013-10-09T12:48:17Z</time>
      </trkpt>
      <trkpt lat="43.22771" lon="5.4372">
        <ele>156</ele>
        <time>2013-10-09T12:48:21Z</time>
      </trkpt>
      <trkpt lat="43.22775" lon="5.43721">
        <ele>155.1</ele>
        <time>2013-10-09T12:48:24Z</time>
      </trkpt>
      <trkpt lat="43.22778" lon="5.43721">
        <ele>154.8</ele>
        <time>2013-10-09T12:48:27Z</time>
      </trkpt>
      <trkpt lat="43.22782" lon="5.43721">
        <ele>154.3</ele>
        <time>2013-10-09T12:48:30Z</time>
      </trkpt>
      <trkpt lat="43.22786" lon="5.43722">
        <ele>153.6</ele>
        <time>2013-10-09T12:48:34Z</time>
      </trkpt>
      <trkpt lat="43.2279" lon="5.43723">
        <ele>153</ele>
        <time>2013-10-09T12:48:37Z</time>
      </trkpt>
      <trkpt lat="43.22793" lon="5.43724">
        <ele>152.6</ele>
        <time>2013-10-09T12:48:40Z</time>
      </trkpt>
      <trkpt lat="43.22797" lon="5.43725">
        <ele>152.5</ele>
        <time>2013-10-09T12:48:44Z</time>
      </trkpt>
      <trkpt lat="43.22801" lon="5.43725">
        <ele>152.5</ele>
        <time>2013-10-09T12:48:48Z</time>
      </trkpt>
      <trkpt lat="43.22802" lon="5.43725">
        <ele>152.3</ele>
        <time>2013-10-09T12:48:49Z</time>
      </trkpt>
      <trkpt lat="43.2281" lon="5.43723">
        <ele>151.6</ele>
        <time>2013-10-09T12:48:56Z</time>
      </trkpt>
      <trkpt lat="43.22813" lon="5.43723">
        <ele>151.5</ele>
        <time>2013-10-09T12:48:59Z</time>
      </trkpt>
      <trkpt lat="43.22817" lon="5.43722">
        <ele>150.5</ele>
        <time>2013-10-09T12:49:03Z</time>
      </trkpt>
      <trkpt lat="43.22821" lon="5.43721">
        <ele>150.3</ele>
        <time>2013-10-09T12:49:06Z</time>
      </trkpt>
      <trkpt lat="43.22825" lon="5.4372">
        <ele>150.6</ele>
        <time>2013-10-09T12:49:09Z</time>
      </trkpt>
      <trkpt lat="43.22829" lon="5.4372">
        <ele>150.5</ele>
        <time>2013-10-09T12:49:12Z</time>
      </trkpt>
      <trkpt lat="43.22833" lon="5.4372">
        <ele>150.6</ele>
        <time>2013-10-09T12:49:15Z</time>
      </trkpt>
      <trkpt lat="43.22837" lon="5.4372">
        <ele>150.6</ele>
        <time>2013-10-09T12:49:18Z</time>
      </trkpt>
      <trkpt lat="43.2284" lon="5.43719">
        <ele>150.1</ele>
        <time>2013-10-09T12:49:21Z</time>
      </trkpt>
      <trkpt lat="43.22844" lon="5.43719">
        <ele>149.8</ele>
        <time>2013-10-09T12:49:24Z</time>
      </trkpt>
      <trkpt lat="43.22848" lon="5.43718">
        <ele>149.8</ele>
        <time>2013-10-09T12:49:27Z</time>
      </trkpt>
      <trkpt lat="43.22852" lon="5.43719">
        <ele>150.3</ele>
        <time>2013-10-09T12:49:30Z</time>
      </trkpt>
      <trkpt lat="43.22856" lon="5.43719">
        <ele>150.8</ele>
        <time>2013-10-09T12:49:33Z</time>
      </trkpt>
      <trkpt lat="43.22861" lon="5.43718">
        <ele>150.6</ele>
        <time>2013-10-09T12:49:37Z</time>
      </trkpt>
      <trkpt lat="43.22865" lon="5.43718">
        <ele>149.3</ele>
        <time>2013-10-09T12:49:41Z</time>
      </trkpt>
      <trkpt lat="43.22869" lon="5.43718">
        <ele>149.3</ele>
        <time>2013-10-09T12:49:44Z</time>
      </trkpt>
      <trkpt lat="43.22872" lon="5.43717">
        <ele>148.6</ele>
        <time>2013-10-09T12:49:47Z</time>
      </trkpt>
      <trkpt lat="43.22876" lon="5.43717">
        <ele>148.1</ele>
        <time>2013-10-09T12:49:50Z</time>
      </trkpt>
      <trkpt lat="43.22877" lon="5.43716">
        <ele>148.1</ele>
        <time>2013-10-09T12:49:51Z</time>
      </trkpt>
      <trkpt lat="43.22883" lon="5.43717">
        <ele>148.1</ele>
        <time>2013-10-09T12:49:56Z</time>
      </trkpt>
      <trkpt lat="43.22887" lon="5.43717">
        <ele>148.8</ele>
        <time>2013-10-09T12:49:59Z</time>
      </trkpt>
      <trkpt lat="43.22891" lon="5.43717">
        <ele>148.8</ele>
        <time>2013-10-09T12:50:02Z</time>
      </trkpt>
      <trkpt lat="43.22895" lon="5.43717">
        <ele>148.6</ele>
        <time>2013-10-09T12:50:05Z</time>
      </trkpt>
      <trkpt lat="43.22899" lon="5.43717">
        <ele>148.8</ele>
        <time>2013-10-09T12:50:08Z</time>
      </trkpt>
      <trkpt lat="43.22903" lon="5.43715">
        <ele>148.6</ele>
        <time>2013-10-09T12:50:11Z</time>
      </trkpt>
      <trkpt lat="43.22906" lon="5.43714">
        <ele>148.1</ele>
        <time>2013-10-09T12:50:14Z</time>
      </trkpt>
      <trkpt lat="43.2291" lon="5.43714">
        <ele>147.6</ele>
        <time>2013-10-09T12:50:17Z</time>
      </trkpt>
      <trkpt lat="43.22913" lon="5.43713">
        <ele>147.3</ele>
        <time>2013-10-09T12:50:20Z</time>
      </trkpt>
      <trkpt lat="43.22918" lon="5.43713">
        <ele>147.5</ele>
        <time>2013-10-09T12:50:24Z</time>
      </trkpt>
      <trkpt lat="43.22921" lon="5.43713">
        <ele>147.5</ele>
        <time>2013-10-09T12:50:27Z</time>
      </trkpt>
      <trkpt lat="43.22925" lon="5.43712">
        <ele>146.8</ele>
        <time>2013-10-09T12:50:31Z</time>
      </trkpt>
      <trkpt lat="43.22929" lon="5.43711">
        <ele>145.8</ele>
        <time>2013-10-09T12:50:35Z</time>
      </trkpt>
      <trkpt lat="43.22933" lon="5.4371">
        <ele>145.6</ele>
        <time>2013-10-09T12:50:38Z</time>
      </trkpt>
      <trkpt lat="43.22937" lon="5.43709">
        <ele>145.3</ele>
        <time>2013-10-09T12:50:42Z</time>
      </trkpt>
      <trkpt lat="43.22941" lon="5.43708">
        <ele>145.1</ele>
        <time>2013-10-09T12:50:46Z</time>
      </trkpt>
      <trkpt lat="43.22945" lon="5.43708">
        <ele>145.1</ele>
        <time>2013-10-09T12:50:49Z</time>
      </trkpt>
      <trkpt lat="43.22949" lon="5.43708">
        <ele>144</ele>
        <time>2013-10-09T12:50:53Z</time>
      </trkpt>
      <trkpt lat="43.2295" lon="5.43708">
        <ele>143.8</ele>
        <time>2013-10-09T12:50:54Z</time>
      </trkpt>
      <trkpt lat="43.22957" lon="5.43707">
        <ele>143.3</ele>
        <time>2013-10-09T12:51:00Z</time>
      </trkpt>
      <trkpt lat="43.22961" lon="5.43707">
        <ele>143.3</ele>
        <time>2013-10-09T12:51:05Z</time>
      </trkpt>
      <trkpt lat="43.22965" lon="5.43705">
        <ele>143.6</ele>
        <time>2013-10-09T12:51:10Z</time>
      </trkpt>
      <trkpt lat="43.22968" lon="5.43705">
        <ele>143.8</ele>
        <time>2013-10-09T12:51:13Z</time>
      </trkpt>
      <trkpt lat="43.22972" lon="5.43704">
        <ele>144.1</ele>
        <time>2013-10-09T12:51:16Z</time>
      </trkpt>
      <trkpt lat="43.22976" lon="5.43704">
        <ele>143.5</ele>
        <time>2013-10-09T12:51:20Z</time>
      </trkpt>
      <trkpt lat="43.2298" lon="5.43702">
        <ele>143.3</ele>
        <time>2013-10-09T12:51:24Z</time>
      </trkpt>
      <trkpt lat="43.22984" lon="5.437">
        <ele>143.3</ele>
        <time>2013-10-09T12:51:29Z</time>
      </trkpt>
      <trkpt lat="43.22988" lon="5.43698">
        <ele>143.5</ele>
        <time>2013-10-09T12:51:33Z</time>
      </trkpt>
      <trkpt lat="43.22992" lon="5.43696">
        <ele>143.8</ele>
        <time>2013-10-09T12:51:37Z</time>
      </trkpt>
      <trkpt lat="43.22995" lon="5.43695">
        <ele>143.8</ele>
        <time>2013-10-09T12:51:40Z</time>
      </trkpt>
      <trkpt lat="43.22999" lon="5.43693">
        <ele>143.8</ele>
        <time>2013-10-09T12:51:43Z</time>
      </trkpt>
      <trkpt lat="43.23002" lon="5.43692">
        <ele>144.1</ele>
        <time>2013-10-09T12:51:46Z</time>
      </trkpt>
      <trkpt lat="43.23007" lon="5.43692">
        <ele>143.6</ele>
        <time>2013-10-09T12:51:50Z</time>
      </trkpt>
      <trkpt lat="43.2301" lon="5.43691">
        <ele>143.3</ele>
        <time>2013-10-09T12:51:53Z</time>
      </trkpt>
      <trkpt lat="43.23014" lon="5.4369">
        <ele>142.8</ele>
        <time>2013-10-09T12:51:57Z</time>
      </trkpt>
      <trkpt lat="43.23015" lon="5.4369">
        <ele>142.5</ele>
        <time>2013-10-09T12:51:58Z</time>
      </trkpt>
      <trkpt lat="43.23022" lon="5.43689">
        <ele>142</ele>
        <time>2013-10-09T12:52:05Z</time>
      </trkpt>
      <trkpt lat="43.23026" lon="5.43688">
        <ele>141.5</ele>
        <time>2013-10-09T12:52:09Z</time>
      </trkpt>
      <trkpt lat="43.2303" lon="5.43685">
        <ele>140.6</ele>
        <time>2013-10-09T12:52:14Z</time>
      </trkpt>
      <trkpt lat="43.23033" lon="5.43682">
        <ele>139.8</ele>
        <time>2013-10-09T12:52:18Z</time>
      </trkpt>
      <trkpt lat="43.23036" lon="5.43678">
        <ele>139</ele>
        <time>2013-10-09T12:52:22Z</time>
      </trkpt>
      <trkpt lat="43.23039" lon="5.43674">
        <ele>138.6</ele>
        <time>2013-10-09T12:52:26Z</time>
      </trkpt>
      <trkpt lat="43.2304" lon="5.43669">
        <ele>137.3</ele>
        <time>2013-10-09T12:52:30Z</time>
      </trkpt>
      <trkpt lat="43.23042" lon="5.43664">
        <ele>136.3</ele>
        <time>2013-10-09T12:52:34Z</time>
      </trkpt>
      <trkpt lat="43.23043" lon="5.43659">
        <ele>135.1</ele>
        <time>2013-10-09T12:52:38Z</time>
      </trkpt>
      <trkpt lat="43.23043" lon="5.43653">
        <ele>133.8</ele>
        <time>2013-10-09T12:52:43Z</time>
      </trkpt>
      <trkpt lat="43.23044" lon="5.43648">
        <ele>133</ele>
        <time>2013-10-09T12:52:47Z</time>
      </trkpt>
      <trkpt lat="43.23047" lon="5.43644">
        <ele>132.5</ele>
        <time>2013-10-09T12:52:51Z</time>
      </trkpt>
      <trkpt lat="43.23051" lon="5.43643">
        <ele>132.6</ele>
        <time>2013-10-09T12:52:54Z</time>
      </trkpt>
      <trkpt lat="43.23055" lon="5.43641">
        <ele>133.3</ele>
        <time>2013-10-09T12:52:57Z</time>
      </trkpt>
      <trkpt lat="43.23059" lon="5.43641">
        <ele>134.6</ele>
        <time>2013-10-09T12:53:00Z</time>
      </trkpt>
      <trkpt lat="43.2306" lon="5.43641">
        <ele>134.6</ele>
        <time>2013-10-09T12:53:01Z</time>
      </trkpt>
    </trkseg>
  </trk>
</gpx>